<?xml version="1.0" encoding="UTF-8" standalone="no" ?>
<gpx xmlns="http://www.topografix.com/GPX/1/1" xmlns:xsi="http://www.w3.org/2001/XMLSchema-instance" xsi:schemaLocation="http://www.topografix.com/GPX/1/1 http://www.topografix.com/GPX/1/1/gpx.xsd" version="1.1" creator="VisuGPX - https://www.visugpx.com">
  <metadata>
    <name>Neffiès 34</name>
    <desc><![CDATA[Suivre A9 / E15 / E80 en direction de Bessan. Prendre la sortie 34-Agde et quitter A9/E15/E80
25 min (45,3 km)
Suivre D13 en direction de D15 à Neffiès
24 min (24,0 km)
Parking: Cave-Coop 
31 Avenue de la Gare
34320 Neffiès
Gps : N43° 31.845' E3° 19.752'
]]></desc>
  </metadata>
  <trk>
    <name><![CDATA[n08 Neffiès 15k396mRochNegre]]></name>
    <trkseg>
      <trkpt lat="43.53136" lon="3.32897">
        <ele>110</ele>
        <time>2016-11-07T11:38:59Z</time>
      </trkpt>
      <trkpt lat="43.53136" lon="3.32897">
        <ele>110</ele>
        <time>2016-11-07T11:40:59Z</time>
      </trkpt>
      <trkpt lat="43.5314" lon="3.32895">
        <ele>110</ele>
        <time>2016-11-07T11:42:59Z</time>
      </trkpt>
      <trkpt lat="43.53176" lon="3.32881">
        <ele>110</ele>
        <time>2016-11-07T11:44:59Z</time>
      </trkpt>
      <trkpt lat="43.532" lon="3.32879">
        <ele>110</ele>
        <time>2016-11-07T11:46:59Z</time>
      </trkpt>
      <trkpt lat="43.53227" lon="3.32879">
        <ele>111</ele>
        <time>2016-11-07T11:48:59Z</time>
      </trkpt>
      <trkpt lat="43.53254" lon="3.32876">
        <ele>112</ele>
        <time>2016-11-07T11:50:59Z</time>
      </trkpt>
      <trkpt lat="43.53288" lon="3.32933">
        <ele>112</ele>
        <time>2016-11-07T11:54:59Z</time>
      </trkpt>
      <trkpt lat="43.53311" lon="3.32968">
        <ele>115</ele>
        <time>2016-11-07T11:58:59Z</time>
      </trkpt>
      <trkpt lat="43.53316" lon="3.32976">
        <ele>116</ele>
        <time>2016-11-07T12:00:59Z</time>
      </trkpt>
      <trkpt lat="43.5333" lon="3.32965">
        <ele>117</ele>
        <time>2016-11-07T12:02:59Z</time>
      </trkpt>
      <trkpt lat="43.5334" lon="3.3296">
        <ele>117</ele>
        <time>2016-11-07T12:04:59Z</time>
      </trkpt>
      <trkpt lat="43.53355" lon="3.32949">
        <ele>117</ele>
        <time>2016-11-07T12:06:59Z</time>
      </trkpt>
      <trkpt lat="43.53366" lon="3.32946">
        <ele>117</ele>
        <time>2016-11-07T12:08:59Z</time>
      </trkpt>
      <trkpt lat="43.53392" lon="3.32956">
        <ele>118</ele>
        <time>2016-11-07T12:10:59Z</time>
      </trkpt>
      <trkpt lat="43.53415" lon="3.32969">
        <ele>120</ele>
        <time>2016-11-07T12:12:59Z</time>
      </trkpt>
      <trkpt lat="43.5343" lon="3.32981">
        <ele>121</ele>
        <time>2016-11-07T12:14:59Z</time>
      </trkpt>
      <trkpt lat="43.53443" lon="3.32977">
        <ele>120</ele>
        <time>2016-11-07T12:16:59Z</time>
      </trkpt>
      <trkpt lat="43.53444" lon="3.32976">
        <ele>120</ele>
        <time>2016-11-07T12:18:59Z</time>
      </trkpt>
      <trkpt lat="43.5345" lon="3.32954">
        <ele>119</ele>
        <time>2016-11-07T12:20:59Z</time>
      </trkpt>
      <trkpt lat="43.53461" lon="3.32925">
        <ele>117</ele>
        <time>2016-11-07T12:22:59Z</time>
      </trkpt>
      <trkpt lat="43.53462" lon="3.32923">
        <ele>117</ele>
        <time>2016-11-07T12:24:59Z</time>
      </trkpt>
      <trkpt lat="43.53476" lon="3.32893">
        <ele>118</ele>
        <time>2016-11-07T12:26:59Z</time>
      </trkpt>
      <trkpt lat="43.53484" lon="3.32884">
        <ele>118</ele>
        <time>2016-11-07T12:28:59Z</time>
      </trkpt>
      <trkpt lat="43.53485" lon="3.32886">
        <ele>118</ele>
        <time>2016-11-07T12:30:59Z</time>
      </trkpt>
      <trkpt lat="43.53484" lon="3.32883">
        <ele>118</ele>
        <time>2016-11-07T12:32:59Z</time>
      </trkpt>
      <trkpt lat="43.53489" lon="3.32872">
        <ele>119</ele>
        <time>2016-11-07T12:34:59Z</time>
      </trkpt>
      <trkpt lat="43.53492" lon="3.32867">
        <ele>119</ele>
        <time>2016-11-07T12:36:59Z</time>
      </trkpt>
      <trkpt lat="43.53501" lon="3.32852">
        <ele>120</ele>
        <time>2016-11-07T12:38:59Z</time>
      </trkpt>
      <trkpt lat="43.53506" lon="3.32845">
        <ele>120</ele>
        <time>2016-11-07T12:40:59Z</time>
      </trkpt>
      <trkpt lat="43.53523" lon="3.32834">
        <ele>122</ele>
        <time>2016-11-07T12:42:59Z</time>
      </trkpt>
      <trkpt lat="43.53536" lon="3.32831">
        <ele>124</ele>
        <time>2016-11-07T12:44:59Z</time>
      </trkpt>
      <trkpt lat="43.53558" lon="3.32833">
        <ele>126</ele>
        <time>2016-11-07T12:46:59Z</time>
      </trkpt>
      <trkpt lat="43.53575" lon="3.32831">
        <ele>128</ele>
        <time>2016-11-07T12:48:59Z</time>
      </trkpt>
      <trkpt lat="43.53594" lon="3.3283">
        <ele>131</ele>
        <time>2016-11-07T12:50:59Z</time>
      </trkpt>
      <trkpt lat="43.53603" lon="3.32807">
        <ele>132</ele>
        <time>2016-11-07T12:52:59Z</time>
      </trkpt>
      <trkpt lat="43.53621" lon="3.32808">
        <ele>134</ele>
        <time>2016-11-07T12:54:59Z</time>
      </trkpt>
      <trkpt lat="43.53636" lon="3.32807">
        <ele>136</ele>
        <time>2016-11-07T12:56:59Z</time>
      </trkpt>
      <trkpt lat="43.53653" lon="3.32799">
        <ele>138</ele>
        <time>2016-11-07T12:58:59Z</time>
      </trkpt>
      <trkpt lat="43.53669" lon="3.32794">
        <ele>140</ele>
        <time>2016-11-07T13:00:59Z</time>
      </trkpt>
      <trkpt lat="43.53679" lon="3.32789">
        <ele>141</ele>
        <time>2016-11-07T13:02:59Z</time>
      </trkpt>
      <trkpt lat="43.53704" lon="3.32783">
        <ele>143</ele>
        <time>2016-11-07T13:04:59Z</time>
      </trkpt>
      <trkpt lat="43.53713" lon="3.32776">
        <ele>143</ele>
        <time>2016-11-07T13:06:59Z</time>
      </trkpt>
      <trkpt lat="43.53711" lon="3.32773">
        <ele>143</ele>
        <time>2016-11-07T13:08:59Z</time>
      </trkpt>
      <trkpt lat="43.53711" lon="3.32771">
        <ele>143</ele>
        <time>2016-11-07T13:10:59Z</time>
      </trkpt>
      <trkpt lat="43.53712" lon="3.32773">
        <ele>143</ele>
        <time>2016-11-07T13:12:59Z</time>
      </trkpt>
      <trkpt lat="43.5372" lon="3.32776">
        <ele>144</ele>
        <time>2016-11-07T13:14:59Z</time>
      </trkpt>
      <trkpt lat="43.53738" lon="3.32775">
        <ele>145</ele>
        <time>2016-11-07T13:16:59Z</time>
      </trkpt>
      <trkpt lat="43.53753" lon="3.32779">
        <ele>147</ele>
        <time>2016-11-07T13:18:59Z</time>
      </trkpt>
      <trkpt lat="43.53767" lon="3.32785">
        <ele>148</ele>
        <time>2016-11-07T13:20:59Z</time>
      </trkpt>
      <trkpt lat="43.53779" lon="3.32786">
        <ele>149</ele>
        <time>2016-11-07T13:22:59Z</time>
      </trkpt>
      <trkpt lat="43.53795" lon="3.3278">
        <ele>150</ele>
        <time>2016-11-07T13:24:59Z</time>
      </trkpt>
      <trkpt lat="43.53797" lon="3.32779">
        <ele>150</ele>
        <time>2016-11-07T13:26:59Z</time>
      </trkpt>
      <trkpt lat="43.53804" lon="3.32777">
        <ele>150</ele>
        <time>2016-11-07T13:28:59Z</time>
      </trkpt>
      <trkpt lat="43.53806" lon="3.32774">
        <ele>151</ele>
        <time>2016-11-07T13:30:59Z</time>
      </trkpt>
      <trkpt lat="43.53807" lon="3.32773">
        <ele>151</ele>
        <time>2016-11-07T13:32:59Z</time>
      </trkpt>
      <trkpt lat="43.53819" lon="3.32767">
        <ele>152</ele>
        <time>2016-11-07T13:34:59Z</time>
      </trkpt>
      <trkpt lat="43.53837" lon="3.32766">
        <ele>153</ele>
        <time>2016-11-07T13:36:59Z</time>
      </trkpt>
      <trkpt lat="43.53853" lon="3.32765">
        <ele>155</ele>
        <time>2016-11-07T13:38:59Z</time>
      </trkpt>
      <trkpt lat="43.53869" lon="3.32761">
        <ele>156</ele>
        <time>2016-11-07T13:40:59Z</time>
      </trkpt>
      <trkpt lat="43.53877" lon="3.32752">
        <ele>158</ele>
        <time>2016-11-07T13:42:59Z</time>
      </trkpt>
      <trkpt lat="43.53901" lon="3.32747">
        <ele>160</ele>
        <time>2016-11-07T13:44:59Z</time>
      </trkpt>
      <trkpt lat="43.53939" lon="3.32733">
        <ele>164</ele>
        <time>2016-11-07T13:46:59Z</time>
      </trkpt>
      <trkpt lat="43.5395" lon="3.3273">
        <ele>165</ele>
        <time>2016-11-07T13:48:59Z</time>
      </trkpt>
      <trkpt lat="43.53973" lon="3.32721">
        <ele>168</ele>
        <time>2016-11-07T13:50:59Z</time>
      </trkpt>
      <trkpt lat="43.53983" lon="3.32712">
        <ele>170</ele>
        <time>2016-11-07T13:52:59Z</time>
      </trkpt>
      <trkpt lat="43.54006" lon="3.32696">
        <ele>173</ele>
        <time>2016-11-07T13:54:59Z</time>
      </trkpt>
      <trkpt lat="43.54015" lon="3.3269">
        <ele>174</ele>
        <time>2016-11-07T13:56:59Z</time>
      </trkpt>
      <trkpt lat="43.54025" lon="3.32685">
        <ele>176</ele>
        <time>2016-11-07T13:58:59Z</time>
      </trkpt>
      <trkpt lat="43.54039" lon="3.32681">
        <ele>178</ele>
        <time>2016-11-07T14:00:59Z</time>
      </trkpt>
      <trkpt lat="43.54053" lon="3.32675">
        <ele>180</ele>
        <time>2016-11-07T14:02:59Z</time>
      </trkpt>
      <trkpt lat="43.54068" lon="3.32662">
        <ele>183</ele>
        <time>2016-11-07T14:04:59Z</time>
      </trkpt>
      <trkpt lat="43.5408" lon="3.32648">
        <ele>184</ele>
        <time>2016-11-07T14:06:59Z</time>
      </trkpt>
      <trkpt lat="43.54094" lon="3.3264">
        <ele>185</ele>
        <time>2016-11-07T14:08:59Z</time>
      </trkpt>
      <trkpt lat="43.54105" lon="3.32635">
        <ele>186</ele>
        <time>2016-11-07T14:10:59Z</time>
      </trkpt>
      <trkpt lat="43.54118" lon="3.32625">
        <ele>187</ele>
        <time>2016-11-07T14:12:59Z</time>
      </trkpt>
      <trkpt lat="43.5413" lon="3.32619">
        <ele>188</ele>
        <time>2016-11-07T14:14:59Z</time>
      </trkpt>
      <trkpt lat="43.54143" lon="3.32609">
        <ele>190</ele>
        <time>2016-11-07T14:16:59Z</time>
      </trkpt>
      <trkpt lat="43.5416" lon="3.326">
        <ele>193</ele>
        <time>2016-11-07T14:18:59Z</time>
      </trkpt>
      <trkpt lat="43.54161" lon="3.326">
        <ele>193</ele>
        <time>2016-11-07T14:20:59Z</time>
      </trkpt>
      <trkpt lat="43.54173" lon="3.32595">
        <ele>195</ele>
        <time>2016-11-07T14:22:59Z</time>
      </trkpt>
      <trkpt lat="43.54188" lon="3.32594">
        <ele>197</ele>
        <time>2016-11-07T14:24:59Z</time>
      </trkpt>
      <trkpt lat="43.54199" lon="3.32594">
        <ele>198</ele>
        <time>2016-11-07T14:26:59Z</time>
      </trkpt>
      <trkpt lat="43.5421" lon="3.32595">
        <ele>200</ele>
        <time>2016-11-07T14:28:59Z</time>
      </trkpt>
      <trkpt lat="43.54226" lon="3.32599">
        <ele>201</ele>
        <time>2016-11-07T14:30:59Z</time>
      </trkpt>
      <trkpt lat="43.54255" lon="3.32605">
        <ele>204</ele>
        <time>2016-11-07T14:32:59Z</time>
      </trkpt>
      <trkpt lat="43.54268" lon="3.32615">
        <ele>204</ele>
        <time>2016-11-07T14:34:59Z</time>
      </trkpt>
      <trkpt lat="43.54279" lon="3.32622">
        <ele>204</ele>
        <time>2016-11-07T14:36:59Z</time>
      </trkpt>
      <trkpt lat="43.5429" lon="3.32623">
        <ele>205</ele>
        <time>2016-11-07T14:38:59Z</time>
      </trkpt>
      <trkpt lat="43.54308" lon="3.32619">
        <ele>207</ele>
        <time>2016-11-07T14:40:59Z</time>
      </trkpt>
      <trkpt lat="43.54328" lon="3.32622">
        <ele>208</ele>
        <time>2016-11-07T14:42:59Z</time>
      </trkpt>
      <trkpt lat="43.54343" lon="3.32615">
        <ele>210</ele>
        <time>2016-11-07T14:44:59Z</time>
      </trkpt>
      <trkpt lat="43.5435" lon="3.32609">
        <ele>211</ele>
        <time>2016-11-07T14:46:59Z</time>
      </trkpt>
      <trkpt lat="43.54365" lon="3.32589">
        <ele>213</ele>
        <time>2016-11-07T14:48:59Z</time>
      </trkpt>
      <trkpt lat="43.54366" lon="3.32581">
        <ele>213</ele>
        <time>2016-11-07T14:50:59Z</time>
      </trkpt>
      <trkpt lat="43.54368" lon="3.32578">
        <ele>214</ele>
        <time>2016-11-07T14:52:59Z</time>
      </trkpt>
      <trkpt lat="43.54375" lon="3.32569">
        <ele>214</ele>
        <time>2016-11-07T14:54:59Z</time>
      </trkpt>
      <trkpt lat="43.54383" lon="3.32559">
        <ele>214</ele>
        <time>2016-11-07T14:56:59Z</time>
      </trkpt>
      <trkpt lat="43.54402" lon="3.32545">
        <ele>215</ele>
        <time>2016-11-07T14:58:59Z</time>
      </trkpt>
      <trkpt lat="43.5441" lon="3.32543">
        <ele>214</ele>
        <time>2016-11-07T15:00:59Z</time>
      </trkpt>
      <trkpt lat="43.54425" lon="3.32545">
        <ele>216</ele>
        <time>2016-11-07T15:02:59Z</time>
      </trkpt>
      <trkpt lat="43.54441" lon="3.32552">
        <ele>218</ele>
        <time>2016-11-07T15:04:59Z</time>
      </trkpt>
      <trkpt lat="43.54452" lon="3.32574">
        <ele>220</ele>
        <time>2016-11-07T15:06:59Z</time>
      </trkpt>
      <trkpt lat="43.54454" lon="3.32583">
        <ele>220</ele>
        <time>2016-11-07T15:08:59Z</time>
      </trkpt>
      <trkpt lat="43.54457" lon="3.32587">
        <ele>221</ele>
        <time>2016-11-07T15:10:59Z</time>
      </trkpt>
      <trkpt lat="43.5446" lon="3.32592">
        <ele>221</ele>
        <time>2016-11-07T15:12:59Z</time>
      </trkpt>
      <trkpt lat="43.54466" lon="3.32603">
        <ele>222</ele>
        <time>2016-11-07T15:14:59Z</time>
      </trkpt>
      <trkpt lat="43.54468" lon="3.32601">
        <ele>222</ele>
        <time>2016-11-07T15:16:59Z</time>
      </trkpt>
      <trkpt lat="43.54474" lon="3.32609">
        <ele>223</ele>
        <time>2016-11-07T15:18:59Z</time>
      </trkpt>
      <trkpt lat="43.54486" lon="3.32629">
        <ele>225</ele>
        <time>2016-11-07T15:20:59Z</time>
      </trkpt>
      <trkpt lat="43.54488" lon="3.32643">
        <ele>225</ele>
        <time>2016-11-07T15:22:59Z</time>
      </trkpt>
      <trkpt lat="43.54489" lon="3.32655">
        <ele>224</ele>
        <time>2016-11-07T15:24:59Z</time>
      </trkpt>
      <trkpt lat="43.54488" lon="3.32661">
        <ele>224</ele>
        <time>2016-11-07T15:26:59Z</time>
      </trkpt>
      <trkpt lat="43.54482" lon="3.32659">
        <ele>222</ele>
        <time>2016-11-07T15:28:59Z</time>
      </trkpt>
      <trkpt lat="43.54475" lon="3.32662">
        <ele>221</ele>
        <time>2016-11-07T15:30:59Z</time>
      </trkpt>
      <trkpt lat="43.54478" lon="3.32661">
        <ele>222</ele>
        <time>2016-11-07T15:32:59Z</time>
      </trkpt>
      <trkpt lat="43.54483" lon="3.32662">
        <ele>223</ele>
        <time>2016-11-07T15:34:59Z</time>
      </trkpt>
      <trkpt lat="43.54479" lon="3.32668">
        <ele>222</ele>
        <time>2016-11-07T15:36:59Z</time>
      </trkpt>
      <trkpt lat="43.54481" lon="3.32674">
        <ele>222</ele>
        <time>2016-11-07T15:38:59Z</time>
      </trkpt>
      <trkpt lat="43.54486" lon="3.32681">
        <ele>224</ele>
        <time>2016-11-07T15:40:59Z</time>
      </trkpt>
      <trkpt lat="43.54486" lon="3.32682">
        <ele>224</ele>
        <time>2016-11-07T15:42:59Z</time>
      </trkpt>
      <trkpt lat="43.54487" lon="3.32686">
        <ele>224</ele>
        <time>2016-11-07T15:44:59Z</time>
      </trkpt>
      <trkpt lat="43.54493" lon="3.32693">
        <ele>226</ele>
        <time>2016-11-07T15:46:59Z</time>
      </trkpt>
      <trkpt lat="43.54485" lon="3.32698">
        <ele>224</ele>
        <time>2016-11-07T15:48:59Z</time>
      </trkpt>
      <trkpt lat="43.54481" lon="3.32698">
        <ele>223</ele>
        <time>2016-11-07T15:50:59Z</time>
      </trkpt>
      <trkpt lat="43.54488" lon="3.32696">
        <ele>225</ele>
        <time>2016-11-07T15:52:59Z</time>
      </trkpt>
      <trkpt lat="43.54488" lon="3.32689">
        <ele>224</ele>
        <time>2016-11-07T15:54:59Z</time>
      </trkpt>
      <trkpt lat="43.54484" lon="3.3268">
        <ele>223</ele>
        <time>2016-11-07T15:56:59Z</time>
      </trkpt>
      <trkpt lat="43.54485" lon="3.32681">
        <ele>223</ele>
        <time>2016-11-07T15:58:59Z</time>
      </trkpt>
      <trkpt lat="43.54482" lon="3.32668">
        <ele>222</ele>
        <time>2016-11-07T16:00:59Z</time>
      </trkpt>
      <trkpt lat="43.54488" lon="3.3266">
        <ele>224</ele>
        <time>2016-11-07T16:02:59Z</time>
      </trkpt>
      <trkpt lat="43.54489" lon="3.32641">
        <ele>225</ele>
        <time>2016-11-07T16:04:59Z</time>
      </trkpt>
      <trkpt lat="43.54496" lon="3.32644">
        <ele>226</ele>
        <time>2016-11-07T16:06:59Z</time>
      </trkpt>
      <trkpt lat="43.54506" lon="3.3266">
        <ele>227</ele>
        <time>2016-11-07T16:08:59Z</time>
      </trkpt>
      <trkpt lat="43.54508" lon="3.32661">
        <ele>228</ele>
        <time>2016-11-07T16:10:59Z</time>
      </trkpt>
      <trkpt lat="43.54509" lon="3.32661">
        <ele>228</ele>
        <time>2016-11-07T16:12:59Z</time>
      </trkpt>
      <trkpt lat="43.54518" lon="3.32656">
        <ele>230</ele>
        <time>2016-11-07T16:14:59Z</time>
      </trkpt>
      <trkpt lat="43.54526" lon="3.3265">
        <ele>231</ele>
        <time>2016-11-07T16:16:59Z</time>
      </trkpt>
      <trkpt lat="43.54528" lon="3.32649">
        <ele>232</ele>
        <time>2016-11-07T16:18:59Z</time>
      </trkpt>
      <trkpt lat="43.5454" lon="3.32655">
        <ele>234</ele>
        <time>2016-11-07T16:20:59Z</time>
      </trkpt>
      <trkpt lat="43.5455" lon="3.32658">
        <ele>235</ele>
        <time>2016-11-07T16:22:59Z</time>
      </trkpt>
      <trkpt lat="43.54555" lon="3.32657">
        <ele>236</ele>
        <time>2016-11-07T16:24:59Z</time>
      </trkpt>
      <trkpt lat="43.54564" lon="3.32657">
        <ele>238</ele>
        <time>2016-11-07T16:26:59Z</time>
      </trkpt>
      <trkpt lat="43.54578" lon="3.32652">
        <ele>241</ele>
        <time>2016-11-07T16:28:59Z</time>
      </trkpt>
      <trkpt lat="43.54588" lon="3.32647">
        <ele>243</ele>
        <time>2016-11-07T16:30:59Z</time>
      </trkpt>
      <trkpt lat="43.54601" lon="3.32644">
        <ele>245</ele>
        <time>2016-11-07T16:32:59Z</time>
      </trkpt>
      <trkpt lat="43.54613" lon="3.32639">
        <ele>247</ele>
        <time>2016-11-07T16:34:59Z</time>
      </trkpt>
      <trkpt lat="43.54622" lon="3.32638">
        <ele>249</ele>
        <time>2016-11-07T16:36:59Z</time>
      </trkpt>
      <trkpt lat="43.54629" lon="3.3264">
        <ele>250</ele>
        <time>2016-11-07T16:38:59Z</time>
      </trkpt>
      <trkpt lat="43.54628" lon="3.32651">
        <ele>250</ele>
        <time>2016-11-07T16:40:59Z</time>
      </trkpt>
      <trkpt lat="43.5463" lon="3.32662">
        <ele>250</ele>
        <time>2016-11-07T16:42:59Z</time>
      </trkpt>
      <trkpt lat="43.54631" lon="3.32675">
        <ele>251</ele>
        <time>2016-11-07T16:44:59Z</time>
      </trkpt>
      <trkpt lat="43.5463" lon="3.32683">
        <ele>251</ele>
        <time>2016-11-07T16:46:59Z</time>
      </trkpt>
      <trkpt lat="43.54631" lon="3.32697">
        <ele>252</ele>
        <time>2016-11-07T16:48:59Z</time>
      </trkpt>
      <trkpt lat="43.54634" lon="3.32698">
        <ele>252</ele>
        <time>2016-11-07T16:50:59Z</time>
      </trkpt>
      <trkpt lat="43.54638" lon="3.32698">
        <ele>253</ele>
        <time>2016-11-07T16:52:59Z</time>
      </trkpt>
      <trkpt lat="43.54654" lon="3.32693">
        <ele>255</ele>
        <time>2016-11-07T16:54:59Z</time>
      </trkpt>
      <trkpt lat="43.54661" lon="3.32687">
        <ele>256</ele>
        <time>2016-11-07T16:56:59Z</time>
      </trkpt>
      <trkpt lat="43.54683" lon="3.32673">
        <ele>260</ele>
        <time>2016-11-07T16:58:59Z</time>
      </trkpt>
      <trkpt lat="43.54708" lon="3.32667">
        <ele>263</ele>
        <time>2016-11-07T17:00:59Z</time>
      </trkpt>
      <trkpt lat="43.54721" lon="3.32658">
        <ele>265</ele>
        <time>2016-11-07T17:02:59Z</time>
      </trkpt>
      <trkpt lat="43.54725" lon="3.32656">
        <ele>265</ele>
        <time>2016-11-07T17:04:59Z</time>
      </trkpt>
      <trkpt lat="43.54739" lon="3.32648">
        <ele>267</ele>
        <time>2016-11-07T17:06:59Z</time>
      </trkpt>
      <trkpt lat="43.54755" lon="3.32641">
        <ele>269</ele>
        <time>2016-11-07T17:08:59Z</time>
      </trkpt>
      <trkpt lat="43.54773" lon="3.32636">
        <ele>271</ele>
        <time>2016-11-07T17:10:59Z</time>
      </trkpt>
      <trkpt lat="43.54792" lon="3.32634">
        <ele>273</ele>
        <time>2016-11-07T17:12:59Z</time>
      </trkpt>
      <trkpt lat="43.54807" lon="3.32628">
        <ele>275</ele>
        <time>2016-11-07T17:14:59Z</time>
      </trkpt>
      <trkpt lat="43.54813" lon="3.32625">
        <ele>276</ele>
        <time>2016-11-07T17:16:59Z</time>
      </trkpt>
      <trkpt lat="43.54827" lon="3.32621">
        <ele>278</ele>
        <time>2016-11-07T17:18:59Z</time>
      </trkpt>
      <trkpt lat="43.54838" lon="3.32617">
        <ele>279</ele>
        <time>2016-11-07T17:20:59Z</time>
      </trkpt>
      <trkpt lat="43.54858" lon="3.32619">
        <ele>280</ele>
        <time>2016-11-07T17:22:59Z</time>
      </trkpt>
      <trkpt lat="43.54863" lon="3.3262">
        <ele>280</ele>
        <time>2016-11-07T17:24:59Z</time>
      </trkpt>
      <trkpt lat="43.54876" lon="3.32619">
        <ele>280</ele>
        <time>2016-11-07T17:26:59Z</time>
      </trkpt>
      <trkpt lat="43.54879" lon="3.32618">
        <ele>281</ele>
        <time>2016-11-07T17:28:59Z</time>
      </trkpt>
      <trkpt lat="43.54883" lon="3.32609">
        <ele>281</ele>
        <time>2016-11-07T17:30:59Z</time>
      </trkpt>
      <trkpt lat="43.54887" lon="3.32596">
        <ele>282</ele>
        <time>2016-11-07T17:32:59Z</time>
      </trkpt>
      <trkpt lat="43.54888" lon="3.32592">
        <ele>282</ele>
        <time>2016-11-07T17:34:59Z</time>
      </trkpt>
      <trkpt lat="43.54889" lon="3.3259">
        <ele>282</ele>
        <time>2016-11-07T17:36:59Z</time>
      </trkpt>
      <trkpt lat="43.54889" lon="3.3259">
        <ele>282</ele>
        <time>2016-11-07T17:38:59Z</time>
      </trkpt>
      <trkpt lat="43.54891" lon="3.32585">
        <ele>282</ele>
        <time>2016-11-07T17:40:59Z</time>
      </trkpt>
      <trkpt lat="43.54907" lon="3.32573">
        <ele>283</ele>
        <time>2016-11-07T17:42:59Z</time>
      </trkpt>
      <trkpt lat="43.54909" lon="3.32555">
        <ele>284</ele>
        <time>2016-11-07T17:44:59Z</time>
      </trkpt>
      <trkpt lat="43.54909" lon="3.32552">
        <ele>284</ele>
        <time>2016-11-07T17:46:59Z</time>
      </trkpt>
      <trkpt lat="43.54908" lon="3.32545">
        <ele>284</ele>
        <time>2016-11-07T17:48:59Z</time>
      </trkpt>
      <trkpt lat="43.54919" lon="3.32531">
        <ele>285</ele>
        <time>2016-11-07T17:50:59Z</time>
      </trkpt>
      <trkpt lat="43.54937" lon="3.32524">
        <ele>288</ele>
        <time>2016-11-07T17:52:59Z</time>
      </trkpt>
      <trkpt lat="43.54946" lon="3.32519">
        <ele>290</ele>
        <time>2016-11-07T17:54:59Z</time>
      </trkpt>
      <trkpt lat="43.54949" lon="3.32517">
        <ele>291</ele>
        <time>2016-11-07T17:56:59Z</time>
      </trkpt>
      <trkpt lat="43.54954" lon="3.32513">
        <ele>292</ele>
        <time>2016-11-07T17:58:59Z</time>
      </trkpt>
      <trkpt lat="43.54967" lon="3.32509">
        <ele>294</ele>
        <time>2016-11-07T18:00:59Z</time>
      </trkpt>
      <trkpt lat="43.54982" lon="3.32505">
        <ele>297</ele>
        <time>2016-11-07T18:02:59Z</time>
      </trkpt>
      <trkpt lat="43.54996" lon="3.3251">
        <ele>300</ele>
        <time>2016-11-07T18:04:59Z</time>
      </trkpt>
      <trkpt lat="43.55005" lon="3.32517">
        <ele>300</ele>
        <time>2016-11-07T18:06:59Z</time>
      </trkpt>
      <trkpt lat="43.55006" lon="3.32514">
        <ele>301</ele>
        <time>2016-11-07T18:08:59Z</time>
      </trkpt>
      <trkpt lat="43.55007" lon="3.32508">
        <ele>301</ele>
        <time>2016-11-07T18:10:59Z</time>
      </trkpt>
      <trkpt lat="43.55007" lon="3.32505">
        <ele>301</ele>
        <time>2016-11-07T18:12:59Z</time>
      </trkpt>
      <trkpt lat="43.55005" lon="3.32512">
        <ele>301</ele>
        <time>2016-11-07T18:14:59Z</time>
      </trkpt>
      <trkpt lat="43.55005" lon="3.32512">
        <ele>301</ele>
        <time>2016-11-07T18:16:59Z</time>
      </trkpt>
      <trkpt lat="43.55008" lon="3.32505">
        <ele>301</ele>
        <time>2016-11-07T18:18:59Z</time>
      </trkpt>
      <trkpt lat="43.55009" lon="3.32506">
        <ele>301</ele>
        <time>2016-11-07T18:20:59Z</time>
      </trkpt>
      <trkpt lat="43.55011" lon="3.32503">
        <ele>302</ele>
        <time>2016-11-07T18:22:59Z</time>
      </trkpt>
      <trkpt lat="43.55012" lon="3.32503">
        <ele>302</ele>
        <time>2016-11-07T18:24:59Z</time>
      </trkpt>
      <trkpt lat="43.55014" lon="3.32506">
        <ele>302</ele>
        <time>2016-11-07T18:26:59Z</time>
      </trkpt>
      <trkpt lat="43.55003" lon="3.32508">
        <ele>301</ele>
        <time>2016-11-07T18:28:59Z</time>
      </trkpt>
      <trkpt lat="43.54992" lon="3.32499">
        <ele>300</ele>
        <time>2016-11-07T18:30:59Z</time>
      </trkpt>
      <trkpt lat="43.54991" lon="3.32498">
        <ele>299</ele>
        <time>2016-11-07T18:32:59Z</time>
      </trkpt>
      <trkpt lat="43.54982" lon="3.32471">
        <ele>299</ele>
        <time>2016-11-07T18:34:59Z</time>
      </trkpt>
      <trkpt lat="43.54976" lon="3.32452">
        <ele>299</ele>
        <time>2016-11-07T18:36:59Z</time>
      </trkpt>
      <trkpt lat="43.54972" lon="3.32428">
        <ele>299</ele>
        <time>2016-11-07T18:38:59Z</time>
      </trkpt>
      <trkpt lat="43.54972" lon="3.32404">
        <ele>300</ele>
        <time>2016-11-07T18:40:59Z</time>
      </trkpt>
      <trkpt lat="43.54975" lon="3.32377">
        <ele>301</ele>
        <time>2016-11-07T18:42:59Z</time>
      </trkpt>
      <trkpt lat="43.54976" lon="3.3237">
        <ele>301</ele>
        <time>2016-11-07T18:44:59Z</time>
      </trkpt>
      <trkpt lat="43.54976" lon="3.32304">
        <ele>301</ele>
        <time>2016-11-07T18:46:59Z</time>
      </trkpt>
      <trkpt lat="43.54969" lon="3.32272">
        <ele>300</ele>
        <time>2016-11-07T18:48:59Z</time>
      </trkpt>
      <trkpt lat="43.54964" lon="3.32252">
        <ele>300</ele>
        <time>2016-11-07T18:50:59Z</time>
      </trkpt>
      <trkpt lat="43.54957" lon="3.32231">
        <ele>300</ele>
        <time>2016-11-07T18:52:59Z</time>
      </trkpt>
      <trkpt lat="43.54941" lon="3.322">
        <ele>301</ele>
        <time>2016-11-07T18:54:59Z</time>
      </trkpt>
      <trkpt lat="43.54921" lon="3.32156">
        <ele>304</ele>
        <time>2016-11-07T18:56:59Z</time>
      </trkpt>
      <trkpt lat="43.54919" lon="3.32149">
        <ele>304</ele>
        <time>2016-11-07T18:58:59Z</time>
      </trkpt>
      <trkpt lat="43.54914" lon="3.32134">
        <ele>305</ele>
        <time>2016-11-07T19:00:59Z</time>
      </trkpt>
      <trkpt lat="43.54913" lon="3.32115">
        <ele>306</ele>
        <time>2016-11-07T19:02:59Z</time>
      </trkpt>
      <trkpt lat="43.54927" lon="3.32096">
        <ele>307</ele>
        <time>2016-11-07T19:04:59Z</time>
      </trkpt>
      <trkpt lat="43.54929" lon="3.32095">
        <ele>307</ele>
        <time>2016-11-07T19:06:59Z</time>
      </trkpt>
      <trkpt lat="43.54948" lon="3.32083">
        <ele>308</ele>
        <time>2016-11-07T19:08:59Z</time>
      </trkpt>
      <trkpt lat="43.54951" lon="3.32082">
        <ele>308</ele>
        <time>2016-11-07T19:10:59Z</time>
      </trkpt>
      <trkpt lat="43.54971" lon="3.32074">
        <ele>307</ele>
        <time>2016-11-07T19:12:59Z</time>
      </trkpt>
      <trkpt lat="43.54975" lon="3.32062">
        <ele>307</ele>
        <time>2016-11-07T19:14:59Z</time>
      </trkpt>
      <trkpt lat="43.54974" lon="3.32061">
        <ele>307</ele>
        <time>2016-11-07T19:16:59Z</time>
      </trkpt>
      <trkpt lat="43.54968" lon="3.32024">
        <ele>308</ele>
        <time>2016-11-07T19:18:59Z</time>
      </trkpt>
      <trkpt lat="43.54967" lon="3.32009">
        <ele>308</ele>
        <time>2016-11-07T19:20:59Z</time>
      </trkpt>
      <trkpt lat="43.54968" lon="3.32007">
        <ele>308</ele>
        <time>2016-11-07T19:22:59Z</time>
      </trkpt>
      <trkpt lat="43.54973" lon="3.31981">
        <ele>308</ele>
        <time>2016-11-07T19:24:59Z</time>
      </trkpt>
      <trkpt lat="43.54986" lon="3.31962">
        <ele>307</ele>
        <time>2016-11-07T19:26:59Z</time>
      </trkpt>
      <trkpt lat="43.55008" lon="3.31938">
        <ele>307</ele>
        <time>2016-11-07T19:28:59Z</time>
      </trkpt>
      <trkpt lat="43.5503" lon="3.31919">
        <ele>308</ele>
        <time>2016-11-07T19:30:59Z</time>
      </trkpt>
      <trkpt lat="43.55052" lon="3.31907">
        <ele>307</ele>
        <time>2016-11-07T19:32:59Z</time>
      </trkpt>
      <trkpt lat="43.55075" lon="3.31895">
        <ele>308</ele>
        <time>2016-11-07T19:34:59Z</time>
      </trkpt>
      <trkpt lat="43.55087" lon="3.31886">
        <ele>308</ele>
        <time>2016-11-07T19:36:59Z</time>
      </trkpt>
      <trkpt lat="43.55104" lon="3.31876">
        <ele>310</ele>
        <time>2016-11-07T19:38:59Z</time>
      </trkpt>
      <trkpt lat="43.55118" lon="3.3187">
        <ele>311</ele>
        <time>2016-11-07T19:40:59Z</time>
      </trkpt>
      <trkpt lat="43.55143" lon="3.31863">
        <ele>314</ele>
        <time>2016-11-07T19:42:59Z</time>
      </trkpt>
      <trkpt lat="43.55157" lon="3.31858">
        <ele>315</ele>
        <time>2016-11-07T19:44:59Z</time>
      </trkpt>
      <trkpt lat="43.55169" lon="3.31858">
        <ele>316</ele>
        <time>2016-11-07T19:46:59Z</time>
      </trkpt>
      <trkpt lat="43.55174" lon="3.3186">
        <ele>317</ele>
        <time>2016-11-07T19:48:59Z</time>
      </trkpt>
      <trkpt lat="43.55193" lon="3.31863">
        <ele>318</ele>
        <time>2016-11-07T19:50:59Z</time>
      </trkpt>
      <trkpt lat="43.55196" lon="3.31863">
        <ele>319</ele>
        <time>2016-11-07T19:52:59Z</time>
      </trkpt>
      <trkpt lat="43.55198" lon="3.31863">
        <ele>319</ele>
        <time>2016-11-07T19:54:59Z</time>
      </trkpt>
      <trkpt lat="43.55207" lon="3.3186">
        <ele>320</ele>
        <time>2016-11-07T19:56:59Z</time>
      </trkpt>
      <trkpt lat="43.55219" lon="3.31857">
        <ele>321</ele>
        <time>2016-11-07T19:58:59Z</time>
      </trkpt>
      <trkpt lat="43.55232" lon="3.31857">
        <ele>323</ele>
        <time>2016-11-07T20:00:59Z</time>
      </trkpt>
      <trkpt lat="43.55258" lon="3.31858">
        <ele>325</ele>
        <time>2016-11-07T20:02:59Z</time>
      </trkpt>
      <trkpt lat="43.55272" lon="3.31858">
        <ele>324</ele>
        <time>2016-11-07T20:04:59Z</time>
      </trkpt>
      <trkpt lat="43.55275" lon="3.31856">
        <ele>324</ele>
        <time>2016-11-07T20:06:59Z</time>
      </trkpt>
      <trkpt lat="43.55277" lon="3.31854">
        <ele>325</ele>
        <time>2016-11-07T20:08:59Z</time>
      </trkpt>
      <trkpt lat="43.55279" lon="3.31844">
        <ele>326</ele>
        <time>2016-11-07T20:10:59Z</time>
      </trkpt>
      <trkpt lat="43.55279" lon="3.31838">
        <ele>326</ele>
        <time>2016-11-07T20:12:59Z</time>
      </trkpt>
      <trkpt lat="43.55276" lon="3.3182">
        <ele>328</ele>
        <time>2016-11-07T20:14:59Z</time>
      </trkpt>
      <trkpt lat="43.55275" lon="3.31817">
        <ele>328</ele>
        <time>2016-11-07T20:16:59Z</time>
      </trkpt>
      <trkpt lat="43.55274" lon="3.31817">
        <ele>328</ele>
        <time>2016-11-07T20:18:59Z</time>
      </trkpt>
      <trkpt lat="43.55274" lon="3.31819">
        <ele>328</ele>
        <time>2016-11-07T20:20:59Z</time>
      </trkpt>
      <trkpt lat="43.55274" lon="3.31818">
        <ele>328</ele>
        <time>2016-11-07T20:22:59Z</time>
      </trkpt>
      <trkpt lat="43.55271" lon="3.3181">
        <ele>328</ele>
        <time>2016-11-07T20:24:59Z</time>
      </trkpt>
      <trkpt lat="43.5527" lon="3.31808">
        <ele>329</ele>
        <time>2016-11-07T20:26:59Z</time>
      </trkpt>
      <trkpt lat="43.5527" lon="3.31803">
        <ele>329</ele>
        <time>2016-11-07T20:28:59Z</time>
      </trkpt>
      <trkpt lat="43.5527" lon="3.31803">
        <ele>329</ele>
        <time>2016-11-07T20:30:59Z</time>
      </trkpt>
      <trkpt lat="43.55271" lon="3.31801">
        <ele>329</ele>
        <time>2016-11-07T20:32:59Z</time>
      </trkpt>
      <trkpt lat="43.55273" lon="3.31796">
        <ele>329</ele>
        <time>2016-11-07T20:34:59Z</time>
      </trkpt>
      <trkpt lat="43.55273" lon="3.3179">
        <ele>330</ele>
        <time>2016-11-07T20:36:59Z</time>
      </trkpt>
      <trkpt lat="43.55275" lon="3.3178">
        <ele>330</ele>
        <time>2016-11-07T20:38:59Z</time>
      </trkpt>
      <trkpt lat="43.55277" lon="3.31771">
        <ele>331</ele>
        <time>2016-11-07T20:40:59Z</time>
      </trkpt>
      <trkpt lat="43.55283" lon="3.31761">
        <ele>332</ele>
        <time>2016-11-07T20:42:59Z</time>
      </trkpt>
      <trkpt lat="43.55286" lon="3.31758">
        <ele>332</ele>
        <time>2016-11-07T20:44:59Z</time>
      </trkpt>
      <trkpt lat="43.55296" lon="3.31738">
        <ele>332</ele>
        <time>2016-11-07T20:46:59Z</time>
      </trkpt>
      <trkpt lat="43.55305" lon="3.31715">
        <ele>331</ele>
        <time>2016-11-07T20:48:59Z</time>
      </trkpt>
      <trkpt lat="43.5531" lon="3.31703">
        <ele>331</ele>
        <time>2016-11-07T20:50:59Z</time>
      </trkpt>
      <trkpt lat="43.55312" lon="3.317">
        <ele>331</ele>
        <time>2016-11-07T20:52:59Z</time>
      </trkpt>
      <trkpt lat="43.55312" lon="3.31698">
        <ele>331</ele>
        <time>2016-11-07T20:54:59Z</time>
      </trkpt>
      <trkpt lat="43.55321" lon="3.31694">
        <ele>332</ele>
        <time>2016-11-07T20:56:59Z</time>
      </trkpt>
      <trkpt lat="43.5533" lon="3.31696">
        <ele>333</ele>
        <time>2016-11-07T20:58:59Z</time>
      </trkpt>
      <trkpt lat="43.55339" lon="3.31694">
        <ele>333</ele>
        <time>2016-11-07T21:00:59Z</time>
      </trkpt>
      <trkpt lat="43.55347" lon="3.31689">
        <ele>332</ele>
        <time>2016-11-07T21:02:59Z</time>
      </trkpt>
      <trkpt lat="43.5535" lon="3.31687">
        <ele>332</ele>
        <time>2016-11-07T21:04:59Z</time>
      </trkpt>
      <trkpt lat="43.55355" lon="3.31686">
        <ele>332</ele>
        <time>2016-11-07T21:06:59Z</time>
      </trkpt>
      <trkpt lat="43.55358" lon="3.31683">
        <ele>332</ele>
        <time>2016-11-07T21:08:59Z</time>
      </trkpt>
      <trkpt lat="43.55374" lon="3.31669">
        <ele>331</ele>
        <time>2016-11-07T21:10:59Z</time>
      </trkpt>
      <trkpt lat="43.55392" lon="3.31668">
        <ele>331</ele>
        <time>2016-11-07T21:12:59Z</time>
      </trkpt>
      <trkpt lat="43.55393" lon="3.31669">
        <ele>331</ele>
        <time>2016-11-07T21:14:59Z</time>
      </trkpt>
      <trkpt lat="43.55397" lon="3.31669">
        <ele>330</ele>
        <time>2016-11-07T21:16:59Z</time>
      </trkpt>
      <trkpt lat="43.55414" lon="3.31658">
        <ele>329</ele>
        <time>2016-11-07T21:18:59Z</time>
      </trkpt>
      <trkpt lat="43.55418" lon="3.31656">
        <ele>329</ele>
        <time>2016-11-07T21:20:59Z</time>
      </trkpt>
      <trkpt lat="43.55429" lon="3.31643">
        <ele>328</ele>
        <time>2016-11-07T21:22:59Z</time>
      </trkpt>
      <trkpt lat="43.55434" lon="3.31635">
        <ele>327</ele>
        <time>2016-11-07T21:24:59Z</time>
      </trkpt>
      <trkpt lat="43.55439" lon="3.31625">
        <ele>327</ele>
        <time>2016-11-07T21:26:59Z</time>
      </trkpt>
      <trkpt lat="43.55441" lon="3.31619">
        <ele>326</ele>
        <time>2016-11-07T21:28:59Z</time>
      </trkpt>
      <trkpt lat="43.55445" lon="3.31598">
        <ele>324</ele>
        <time>2016-11-07T21:30:59Z</time>
      </trkpt>
      <trkpt lat="43.5545" lon="3.31589">
        <ele>324</ele>
        <time>2016-11-07T21:32:59Z</time>
      </trkpt>
      <trkpt lat="43.55455" lon="3.31581">
        <ele>323</ele>
        <time>2016-11-07T21:34:59Z</time>
      </trkpt>
      <trkpt lat="43.55455" lon="3.3158">
        <ele>323</ele>
        <time>2016-11-07T21:36:59Z</time>
      </trkpt>
      <trkpt lat="43.55457" lon="3.31573">
        <ele>322</ele>
        <time>2016-11-07T21:38:59Z</time>
      </trkpt>
      <trkpt lat="43.55458" lon="3.31568">
        <ele>321</ele>
        <time>2016-11-07T21:40:59Z</time>
      </trkpt>
      <trkpt lat="43.55463" lon="3.31557">
        <ele>320</ele>
        <time>2016-11-07T21:42:59Z</time>
      </trkpt>
      <trkpt lat="43.55468" lon="3.31548">
        <ele>319</ele>
        <time>2016-11-07T21:44:59Z</time>
      </trkpt>
      <trkpt lat="43.55474" lon="3.31529">
        <ele>317</ele>
        <time>2016-11-07T21:46:59Z</time>
      </trkpt>
      <trkpt lat="43.55478" lon="3.3151">
        <ele>315</ele>
        <time>2016-11-07T21:48:59Z</time>
      </trkpt>
      <trkpt lat="43.55485" lon="3.31494">
        <ele>314</ele>
        <time>2016-11-07T21:50:59Z</time>
      </trkpt>
      <trkpt lat="43.5549" lon="3.31483">
        <ele>313</ele>
        <time>2016-11-07T21:52:59Z</time>
      </trkpt>
      <trkpt lat="43.55494" lon="3.3148">
        <ele>314</ele>
        <time>2016-11-07T21:54:59Z</time>
      </trkpt>
      <trkpt lat="43.55508" lon="3.31456">
        <ele>312</ele>
        <time>2016-11-07T21:56:59Z</time>
      </trkpt>
      <trkpt lat="43.55513" lon="3.31445">
        <ele>311</ele>
        <time>2016-11-07T21:58:59Z</time>
      </trkpt>
      <trkpt lat="43.55514" lon="3.31444">
        <ele>311</ele>
        <time>2016-11-07T22:00:59Z</time>
      </trkpt>
      <trkpt lat="43.55516" lon="3.31441">
        <ele>310</ele>
        <time>2016-11-07T22:02:59Z</time>
      </trkpt>
      <trkpt lat="43.55517" lon="3.31438">
        <ele>310</ele>
        <time>2016-11-07T22:04:59Z</time>
      </trkpt>
      <trkpt lat="43.55517" lon="3.31435">
        <ele>310</ele>
        <time>2016-11-07T22:06:59Z</time>
      </trkpt>
      <trkpt lat="43.55519" lon="3.31433">
        <ele>309</ele>
        <time>2016-11-07T22:08:59Z</time>
      </trkpt>
      <trkpt lat="43.55535" lon="3.31417">
        <ele>307</ele>
        <time>2016-11-07T22:10:59Z</time>
      </trkpt>
      <trkpt lat="43.55547" lon="3.31403">
        <ele>305</ele>
        <time>2016-11-07T22:12:59Z</time>
      </trkpt>
      <trkpt lat="43.55548" lon="3.31402">
        <ele>305</ele>
        <time>2016-11-07T22:14:59Z</time>
      </trkpt>
      <trkpt lat="43.55559" lon="3.31387">
        <ele>304</ele>
        <time>2016-11-07T22:16:59Z</time>
      </trkpt>
      <trkpt lat="43.55559" lon="3.31368">
        <ele>302</ele>
        <time>2016-11-07T22:18:59Z</time>
      </trkpt>
      <trkpt lat="43.55559" lon="3.31338">
        <ele>299</ele>
        <time>2016-11-07T22:20:59Z</time>
      </trkpt>
      <trkpt lat="43.55553" lon="3.31304">
        <ele>298</ele>
        <time>2016-11-07T22:22:59Z</time>
      </trkpt>
      <trkpt lat="43.55553" lon="3.31296">
        <ele>298</ele>
        <time>2016-11-07T22:24:59Z</time>
      </trkpt>
      <trkpt lat="43.55554" lon="3.31291">
        <ele>298</ele>
        <time>2016-11-07T22:26:59Z</time>
      </trkpt>
      <trkpt lat="43.55554" lon="3.31288">
        <ele>298</ele>
        <time>2016-11-07T22:28:59Z</time>
      </trkpt>
      <trkpt lat="43.55558" lon="3.31275">
        <ele>298</ele>
        <time>2016-11-07T22:30:59Z</time>
      </trkpt>
      <trkpt lat="43.5556" lon="3.31273">
        <ele>298</ele>
        <time>2016-11-07T22:32:59Z</time>
      </trkpt>
      <trkpt lat="43.55563" lon="3.31261">
        <ele>299</ele>
        <time>2016-11-07T22:34:59Z</time>
      </trkpt>
      <trkpt lat="43.55555" lon="3.31247">
        <ele>298</ele>
        <time>2016-11-07T22:36:59Z</time>
      </trkpt>
      <trkpt lat="43.55555" lon="3.3125">
        <ele>298</ele>
        <time>2016-11-07T22:38:59Z</time>
      </trkpt>
      <trkpt lat="43.55554" lon="3.31248">
        <ele>298</ele>
        <time>2016-11-07T22:40:59Z</time>
      </trkpt>
      <trkpt lat="43.55551" lon="3.31242">
        <ele>297</ele>
        <time>2016-11-07T22:42:59Z</time>
      </trkpt>
      <trkpt lat="43.55534" lon="3.312">
        <ele>297</ele>
        <time>2016-11-07T22:44:59Z</time>
      </trkpt>
      <trkpt lat="43.55532" lon="3.31191">
        <ele>297</ele>
        <time>2016-11-07T22:46:59Z</time>
      </trkpt>
      <trkpt lat="43.55531" lon="3.31175">
        <ele>298</ele>
        <time>2016-11-07T22:48:59Z</time>
      </trkpt>
      <trkpt lat="43.55529" lon="3.31168">
        <ele>297</ele>
        <time>2016-11-07T22:50:59Z</time>
      </trkpt>
      <trkpt lat="43.55519" lon="3.31143">
        <ele>298</ele>
        <time>2016-11-07T22:52:59Z</time>
      </trkpt>
      <trkpt lat="43.55519" lon="3.31142">
        <ele>298</ele>
        <time>2016-11-07T22:54:59Z</time>
      </trkpt>
      <trkpt lat="43.55515" lon="3.3113">
        <ele>298</ele>
        <time>2016-11-07T22:56:59Z</time>
      </trkpt>
      <trkpt lat="43.5551" lon="3.31121">
        <ele>298</ele>
        <time>2016-11-07T22:58:59Z</time>
      </trkpt>
      <trkpt lat="43.55505" lon="3.31098">
        <ele>300</ele>
        <time>2016-11-07T23:00:59Z</time>
      </trkpt>
      <trkpt lat="43.55504" lon="3.31096">
        <ele>300</ele>
        <time>2016-11-07T23:02:59Z</time>
      </trkpt>
      <trkpt lat="43.55502" lon="3.31091">
        <ele>300</ele>
        <time>2016-11-07T23:04:59Z</time>
      </trkpt>
      <trkpt lat="43.55481" lon="3.31053">
        <ele>295</ele>
        <time>2016-11-07T23:06:59Z</time>
      </trkpt>
      <trkpt lat="43.55469" lon="3.31026">
        <ele>293</ele>
        <time>2016-11-07T23:08:59Z</time>
      </trkpt>
      <trkpt lat="43.55467" lon="3.31021">
        <ele>293</ele>
        <time>2016-11-07T23:10:59Z</time>
      </trkpt>
      <trkpt lat="43.55464" lon="3.31009">
        <ele>293</ele>
        <time>2016-11-07T23:12:59Z</time>
      </trkpt>
      <trkpt lat="43.55462" lon="3.30996">
        <ele>293</ele>
        <time>2016-11-07T23:14:59Z</time>
      </trkpt>
      <trkpt lat="43.55459" lon="3.30964">
        <ele>292</ele>
        <time>2016-11-07T23:16:59Z</time>
      </trkpt>
      <trkpt lat="43.55458" lon="3.30948">
        <ele>291</ele>
        <time>2016-11-07T23:18:59Z</time>
      </trkpt>
      <trkpt lat="43.55457" lon="3.30936">
        <ele>291</ele>
        <time>2016-11-07T23:20:59Z</time>
      </trkpt>
      <trkpt lat="43.55457" lon="3.30935">
        <ele>291</ele>
        <time>2016-11-07T23:22:59Z</time>
      </trkpt>
      <trkpt lat="43.55455" lon="3.30906">
        <ele>291</ele>
        <time>2016-11-07T23:24:59Z</time>
      </trkpt>
      <trkpt lat="43.55452" lon="3.30899">
        <ele>291</ele>
        <time>2016-11-07T23:26:59Z</time>
      </trkpt>
      <trkpt lat="43.5545" lon="3.3088">
        <ele>291</ele>
        <time>2016-11-07T23:28:59Z</time>
      </trkpt>
      <trkpt lat="43.5544" lon="3.3086">
        <ele>291</ele>
        <time>2016-11-07T23:30:59Z</time>
      </trkpt>
      <trkpt lat="43.55421" lon="3.30854">
        <ele>291</ele>
        <time>2016-11-07T23:32:59Z</time>
      </trkpt>
      <trkpt lat="43.5542" lon="3.30854">
        <ele>291</ele>
        <time>2016-11-07T23:34:59Z</time>
      </trkpt>
      <trkpt lat="43.55403" lon="3.30852">
        <ele>289</ele>
        <time>2016-11-07T23:36:59Z</time>
      </trkpt>
      <trkpt lat="43.55381" lon="3.30852">
        <ele>286</ele>
        <time>2016-11-07T23:38:59Z</time>
      </trkpt>
      <trkpt lat="43.55381" lon="3.30852">
        <ele>286</ele>
        <time>2016-11-07T23:40:59Z</time>
      </trkpt>
      <trkpt lat="43.55367" lon="3.30849">
        <ele>284</ele>
        <time>2016-11-07T23:42:59Z</time>
      </trkpt>
      <trkpt lat="43.55362" lon="3.30848">
        <ele>283</ele>
        <time>2016-11-07T23:44:59Z</time>
      </trkpt>
      <trkpt lat="43.55361" lon="3.3085">
        <ele>283</ele>
        <time>2016-11-07T23:46:59Z</time>
      </trkpt>
      <trkpt lat="43.55338" lon="3.30849">
        <ele>280</ele>
        <time>2016-11-07T23:48:59Z</time>
      </trkpt>
      <trkpt lat="43.55333" lon="3.3085">
        <ele>279</ele>
        <time>2016-11-07T23:50:59Z</time>
      </trkpt>
      <trkpt lat="43.55327" lon="3.30847">
        <ele>278</ele>
        <time>2016-11-07T23:52:59Z</time>
      </trkpt>
      <trkpt lat="43.55322" lon="3.3084">
        <ele>277</ele>
        <time>2016-11-07T23:54:59Z</time>
      </trkpt>
      <trkpt lat="43.55323" lon="3.3083">
        <ele>279</ele>
        <time>2016-11-07T23:56:59Z</time>
      </trkpt>
      <trkpt lat="43.55322" lon="3.30833">
        <ele>278</ele>
        <time>2016-11-07T23:58:59Z</time>
      </trkpt>
      <trkpt lat="43.55319" lon="3.30822">
        <ele>278</ele>
        <time>2016-11-08T00:00:59Z</time>
      </trkpt>
      <trkpt lat="43.55319" lon="3.30819">
        <ele>278</ele>
        <time>2016-11-08T00:02:59Z</time>
      </trkpt>
      <trkpt lat="43.55317" lon="3.30812">
        <ele>278</ele>
        <time>2016-11-08T00:04:59Z</time>
      </trkpt>
      <trkpt lat="43.55313" lon="3.30796">
        <ele>278</ele>
        <time>2016-11-08T00:06:59Z</time>
      </trkpt>
      <trkpt lat="43.55312" lon="3.30792">
        <ele>278</ele>
        <time>2016-11-08T00:08:59Z</time>
      </trkpt>
      <trkpt lat="43.55309" lon="3.30785">
        <ele>277</ele>
        <time>2016-11-08T00:10:59Z</time>
      </trkpt>
      <trkpt lat="43.55309" lon="3.30781">
        <ele>278</ele>
        <time>2016-11-08T00:12:59Z</time>
      </trkpt>
      <trkpt lat="43.55309" lon="3.3078">
        <ele>278</ele>
        <time>2016-11-08T00:14:59Z</time>
      </trkpt>
      <trkpt lat="43.5531" lon="3.3077">
        <ele>279</ele>
        <time>2016-11-08T00:16:59Z</time>
      </trkpt>
      <trkpt lat="43.55309" lon="3.30769">
        <ele>278</ele>
        <time>2016-11-08T00:18:59Z</time>
      </trkpt>
      <trkpt lat="43.55309" lon="3.30766">
        <ele>278</ele>
        <time>2016-11-08T00:20:59Z</time>
      </trkpt>
      <trkpt lat="43.55303" lon="3.3074">
        <ele>275</ele>
        <time>2016-11-08T00:22:59Z</time>
      </trkpt>
      <trkpt lat="43.55302" lon="3.30734">
        <ele>273</ele>
        <time>2016-11-08T00:24:59Z</time>
      </trkpt>
      <trkpt lat="43.55298" lon="3.30729">
        <ele>270</ele>
        <time>2016-11-08T00:26:59Z</time>
      </trkpt>
      <trkpt lat="43.55288" lon="3.30728">
        <ele>267</ele>
        <time>2016-11-08T00:28:59Z</time>
      </trkpt>
      <trkpt lat="43.55282" lon="3.30723">
        <ele>264</ele>
        <time>2016-11-08T00:30:59Z</time>
      </trkpt>
      <trkpt lat="43.55281" lon="3.30721">
        <ele>263</ele>
        <time>2016-11-08T00:32:59Z</time>
      </trkpt>
      <trkpt lat="43.55278" lon="3.30721">
        <ele>262</ele>
        <time>2016-11-08T00:34:59Z</time>
      </trkpt>
      <trkpt lat="43.55278" lon="3.3072">
        <ele>262</ele>
        <time>2016-11-08T00:36:59Z</time>
      </trkpt>
      <trkpt lat="43.55279" lon="3.3072">
        <ele>262</ele>
        <time>2016-11-08T00:38:59Z</time>
      </trkpt>
      <trkpt lat="43.55279" lon="3.30724">
        <ele>263</ele>
        <time>2016-11-08T00:40:59Z</time>
      </trkpt>
      <trkpt lat="43.5528" lon="3.30725">
        <ele>264</ele>
        <time>2016-11-08T00:42:59Z</time>
      </trkpt>
      <trkpt lat="43.55284" lon="3.30726">
        <ele>265</ele>
        <time>2016-11-08T00:44:59Z</time>
      </trkpt>
      <trkpt lat="43.55285" lon="3.30726">
        <ele>266</ele>
        <time>2016-11-08T00:46:59Z</time>
      </trkpt>
      <trkpt lat="43.55298" lon="3.30723">
        <ele>269</ele>
        <time>2016-11-08T00:48:59Z</time>
      </trkpt>
      <trkpt lat="43.553" lon="3.30722">
        <ele>269</ele>
        <time>2016-11-08T00:50:59Z</time>
      </trkpt>
      <trkpt lat="43.55313" lon="3.30723">
        <ele>273</ele>
        <time>2016-11-08T00:52:59Z</time>
      </trkpt>
      <trkpt lat="43.55322" lon="3.3072">
        <ele>275</ele>
        <time>2016-11-08T00:54:59Z</time>
      </trkpt>
      <trkpt lat="43.55324" lon="3.3072">
        <ele>276</ele>
        <time>2016-11-08T00:56:59Z</time>
      </trkpt>
      <trkpt lat="43.55344" lon="3.3071">
        <ele>277</ele>
        <time>2016-11-08T00:58:59Z</time>
      </trkpt>
      <trkpt lat="43.55346" lon="3.30709">
        <ele>277</ele>
        <time>2016-11-08T01:00:59Z</time>
      </trkpt>
      <trkpt lat="43.55347" lon="3.30707">
        <ele>277</ele>
        <time>2016-11-08T01:02:59Z</time>
      </trkpt>
      <trkpt lat="43.55354" lon="3.30702">
        <ele>277</ele>
        <time>2016-11-08T01:04:59Z</time>
      </trkpt>
      <trkpt lat="43.55364" lon="3.30695">
        <ele>277</ele>
        <time>2016-11-08T01:06:59Z</time>
      </trkpt>
      <trkpt lat="43.55372" lon="3.30691">
        <ele>277</ele>
        <time>2016-11-08T01:08:59Z</time>
      </trkpt>
      <trkpt lat="43.55378" lon="3.30686">
        <ele>277</ele>
        <time>2016-11-08T01:10:59Z</time>
      </trkpt>
      <trkpt lat="43.55379" lon="3.30685">
        <ele>277</ele>
        <time>2016-11-08T01:12:59Z</time>
      </trkpt>
      <trkpt lat="43.55382" lon="3.30682">
        <ele>277</ele>
        <time>2016-11-08T01:14:59Z</time>
      </trkpt>
      <trkpt lat="43.55385" lon="3.3068">
        <ele>277</ele>
        <time>2016-11-08T01:16:59Z</time>
      </trkpt>
      <trkpt lat="43.55387" lon="3.30677">
        <ele>277</ele>
        <time>2016-11-08T01:18:59Z</time>
      </trkpt>
      <trkpt lat="43.55393" lon="3.30673">
        <ele>277</ele>
        <time>2016-11-08T01:20:59Z</time>
      </trkpt>
      <trkpt lat="43.55394" lon="3.30672">
        <ele>277</ele>
        <time>2016-11-08T01:22:59Z</time>
      </trkpt>
      <trkpt lat="43.55402" lon="3.30666">
        <ele>277</ele>
        <time>2016-11-08T01:24:59Z</time>
      </trkpt>
      <trkpt lat="43.55404" lon="3.30664">
        <ele>277</ele>
        <time>2016-11-08T01:26:59Z</time>
      </trkpt>
      <trkpt lat="43.55405" lon="3.30657">
        <ele>275</ele>
        <time>2016-11-08T01:28:59Z</time>
      </trkpt>
      <trkpt lat="43.55403" lon="3.30652">
        <ele>273</ele>
        <time>2016-11-08T01:30:59Z</time>
      </trkpt>
      <trkpt lat="43.55395" lon="3.30658">
        <ele>273</ele>
        <time>2016-11-08T01:32:59Z</time>
      </trkpt>
      <trkpt lat="43.55384" lon="3.30664">
        <ele>273</ele>
        <time>2016-11-08T01:34:59Z</time>
      </trkpt>
      <trkpt lat="43.55374" lon="3.30665">
        <ele>271</ele>
        <time>2016-11-08T01:36:59Z</time>
      </trkpt>
      <trkpt lat="43.55362" lon="3.30663">
        <ele>267</ele>
        <time>2016-11-08T01:38:59Z</time>
      </trkpt>
      <trkpt lat="43.55353" lon="3.30657">
        <ele>264</ele>
        <time>2016-11-08T01:40:59Z</time>
      </trkpt>
      <trkpt lat="43.55353" lon="3.30659">
        <ele>264</ele>
        <time>2016-11-08T01:42:59Z</time>
      </trkpt>
      <trkpt lat="43.55346" lon="3.30661">
        <ele>263</ele>
        <time>2016-11-08T01:44:59Z</time>
      </trkpt>
      <trkpt lat="43.55343" lon="3.3066">
        <ele>262</ele>
        <time>2016-11-08T01:46:59Z</time>
      </trkpt>
      <trkpt lat="43.55339" lon="3.3066">
        <ele>261</ele>
        <time>2016-11-08T01:48:59Z</time>
      </trkpt>
      <trkpt lat="43.55337" lon="3.30655">
        <ele>259</ele>
        <time>2016-11-08T01:50:59Z</time>
      </trkpt>
      <trkpt lat="43.55337" lon="3.30656">
        <ele>260</ele>
        <time>2016-11-08T01:52:59Z</time>
      </trkpt>
      <trkpt lat="43.55339" lon="3.30654">
        <ele>259</ele>
        <time>2016-11-08T01:54:59Z</time>
      </trkpt>
      <trkpt lat="43.55345" lon="3.30649">
        <ele>259</ele>
        <time>2016-11-08T01:56:59Z</time>
      </trkpt>
      <trkpt lat="43.55348" lon="3.30646">
        <ele>259</ele>
        <time>2016-11-08T01:58:59Z</time>
      </trkpt>
      <trkpt lat="43.55349" lon="3.30646">
        <ele>259</ele>
        <time>2016-11-08T02:00:59Z</time>
      </trkpt>
      <trkpt lat="43.55349" lon="3.30647">
        <ele>260</ele>
        <time>2016-11-08T02:02:59Z</time>
      </trkpt>
      <trkpt lat="43.55349" lon="3.30647">
        <ele>260</ele>
        <time>2016-11-08T02:04:59Z</time>
      </trkpt>
      <trkpt lat="43.55352" lon="3.30642">
        <ele>259</ele>
        <time>2016-11-08T02:06:59Z</time>
      </trkpt>
      <trkpt lat="43.55366" lon="3.3063">
        <ele>258</ele>
        <time>2016-11-08T02:08:59Z</time>
      </trkpt>
      <trkpt lat="43.55376" lon="3.30618">
        <ele>257</ele>
        <time>2016-11-08T02:10:59Z</time>
      </trkpt>
      <trkpt lat="43.55376" lon="3.30618">
        <ele>257</ele>
        <time>2016-11-08T02:12:59Z</time>
      </trkpt>
      <trkpt lat="43.55375" lon="3.30615">
        <ele>256</ele>
        <time>2016-11-08T02:14:59Z</time>
      </trkpt>
      <trkpt lat="43.55374" lon="3.30616">
        <ele>256</ele>
        <time>2016-11-08T02:16:59Z</time>
      </trkpt>
      <trkpt lat="43.55374" lon="3.30616">
        <ele>256</ele>
        <time>2016-11-08T02:18:59Z</time>
      </trkpt>
      <trkpt lat="43.55382" lon="3.30611">
        <ele>256</ele>
        <time>2016-11-08T02:20:59Z</time>
      </trkpt>
      <trkpt lat="43.55396" lon="3.30596">
        <ele>255</ele>
        <time>2016-11-08T02:22:59Z</time>
      </trkpt>
      <trkpt lat="43.55397" lon="3.3059">
        <ele>254</ele>
        <time>2016-11-08T02:24:59Z</time>
      </trkpt>
      <trkpt lat="43.55408" lon="3.30572">
        <ele>251</ele>
        <time>2016-11-08T02:26:59Z</time>
      </trkpt>
      <trkpt lat="43.55412" lon="3.30568">
        <ele>251</ele>
        <time>2016-11-08T02:28:59Z</time>
      </trkpt>
      <trkpt lat="43.55416" lon="3.30561">
        <ele>251</ele>
        <time>2016-11-08T02:30:59Z</time>
      </trkpt>
      <trkpt lat="43.55417" lon="3.3055">
        <ele>249</ele>
        <time>2016-11-08T02:32:59Z</time>
      </trkpt>
      <trkpt lat="43.55417" lon="3.30549">
        <ele>248</ele>
        <time>2016-11-08T02:34:59Z</time>
      </trkpt>
      <trkpt lat="43.55418" lon="3.30548">
        <ele>248</ele>
        <time>2016-11-08T02:36:59Z</time>
      </trkpt>
      <trkpt lat="43.55419" lon="3.30544">
        <ele>248</ele>
        <time>2016-11-08T02:38:59Z</time>
      </trkpt>
      <trkpt lat="43.5542" lon="3.30539">
        <ele>247</ele>
        <time>2016-11-08T02:40:59Z</time>
      </trkpt>
      <trkpt lat="43.55423" lon="3.30535">
        <ele>247</ele>
        <time>2016-11-08T02:42:59Z</time>
      </trkpt>
      <trkpt lat="43.55425" lon="3.30529">
        <ele>246</ele>
        <time>2016-11-08T02:44:59Z</time>
      </trkpt>
      <trkpt lat="43.55429" lon="3.30524">
        <ele>246</ele>
        <time>2016-11-08T02:46:59Z</time>
      </trkpt>
      <trkpt lat="43.5543" lon="3.30523">
        <ele>247</ele>
        <time>2016-11-08T02:48:59Z</time>
      </trkpt>
      <trkpt lat="43.55437" lon="3.30505">
        <ele>245</ele>
        <time>2016-11-08T02:50:59Z</time>
      </trkpt>
      <trkpt lat="43.55429" lon="3.30498">
        <ele>241</ele>
        <time>2016-11-08T02:52:59Z</time>
      </trkpt>
      <trkpt lat="43.55419" lon="3.30498">
        <ele>237</ele>
        <time>2016-11-08T02:54:59Z</time>
      </trkpt>
      <trkpt lat="43.55419" lon="3.30494">
        <ele>236</ele>
        <time>2016-11-08T02:56:59Z</time>
      </trkpt>
      <trkpt lat="43.55423" lon="3.30486">
        <ele>236</ele>
        <time>2016-11-08T02:58:59Z</time>
      </trkpt>
      <trkpt lat="43.55424" lon="3.30485">
        <ele>236</ele>
        <time>2016-11-08T03:00:59Z</time>
      </trkpt>
      <trkpt lat="43.55425" lon="3.30484">
        <ele>236</ele>
        <time>2016-11-08T03:02:59Z</time>
      </trkpt>
      <trkpt lat="43.55425" lon="3.30484">
        <ele>236</ele>
        <time>2016-11-08T03:04:59Z</time>
      </trkpt>
      <trkpt lat="43.55431" lon="3.30476">
        <ele>236</ele>
        <time>2016-11-08T03:06:59Z</time>
      </trkpt>
      <trkpt lat="43.55435" lon="3.3047">
        <ele>236</ele>
        <time>2016-11-08T03:08:59Z</time>
      </trkpt>
      <trkpt lat="43.55438" lon="3.30467">
        <ele>236</ele>
        <time>2016-11-08T03:10:59Z</time>
      </trkpt>
      <trkpt lat="43.55441" lon="3.30462">
        <ele>235</ele>
        <time>2016-11-08T03:12:59Z</time>
      </trkpt>
      <trkpt lat="43.55448" lon="3.30458">
        <ele>237</ele>
        <time>2016-11-08T03:14:59Z</time>
      </trkpt>
      <trkpt lat="43.55454" lon="3.3045">
        <ele>236</ele>
        <time>2016-11-08T03:16:59Z</time>
      </trkpt>
      <trkpt lat="43.55454" lon="3.30448">
        <ele>236</ele>
        <time>2016-11-08T03:18:59Z</time>
      </trkpt>
      <trkpt lat="43.55444" lon="3.3044">
        <ele>231</ele>
        <time>2016-11-08T03:20:59Z</time>
      </trkpt>
      <trkpt lat="43.55435" lon="3.30444">
        <ele>229</ele>
        <time>2016-11-08T03:22:59Z</time>
      </trkpt>
      <trkpt lat="43.55431" lon="3.30433">
        <ele>225</ele>
        <time>2016-11-08T03:24:59Z</time>
      </trkpt>
      <trkpt lat="43.55435" lon="3.30429">
        <ele>225</ele>
        <time>2016-11-08T03:26:59Z</time>
      </trkpt>
      <trkpt lat="43.55439" lon="3.30424">
        <ele>225</ele>
        <time>2016-11-08T03:28:59Z</time>
      </trkpt>
      <trkpt lat="43.55441" lon="3.30419">
        <ele>224</ele>
        <time>2016-11-08T03:30:59Z</time>
      </trkpt>
      <trkpt lat="43.55447" lon="3.30408">
        <ele>223</ele>
        <time>2016-11-08T03:32:59Z</time>
      </trkpt>
      <trkpt lat="43.55448" lon="3.30405">
        <ele>223</ele>
        <time>2016-11-08T03:34:59Z</time>
      </trkpt>
      <trkpt lat="43.5545" lon="3.30401">
        <ele>222</ele>
        <time>2016-11-08T03:36:59Z</time>
      </trkpt>
      <trkpt lat="43.55458" lon="3.30391">
        <ele>222</ele>
        <time>2016-11-08T03:38:59Z</time>
      </trkpt>
      <trkpt lat="43.55466" lon="3.30378">
        <ele>220</ele>
        <time>2016-11-08T03:40:59Z</time>
      </trkpt>
      <trkpt lat="43.55475" lon="3.3037">
        <ele>220</ele>
        <time>2016-11-08T03:42:59Z</time>
      </trkpt>
      <trkpt lat="43.55477" lon="3.30369">
        <ele>220</ele>
        <time>2016-11-08T03:44:59Z</time>
      </trkpt>
      <trkpt lat="43.55483" lon="3.3036">
        <ele>219</ele>
        <time>2016-11-08T03:46:59Z</time>
      </trkpt>
      <trkpt lat="43.55492" lon="3.30345">
        <ele>216</ele>
        <time>2016-11-08T03:48:59Z</time>
      </trkpt>
      <trkpt lat="43.55492" lon="3.30343">
        <ele>215</ele>
        <time>2016-11-08T03:50:59Z</time>
      </trkpt>
      <trkpt lat="43.55501" lon="3.30334">
        <ele>214</ele>
        <time>2016-11-08T03:52:59Z</time>
      </trkpt>
      <trkpt lat="43.55521" lon="3.30327">
        <ele>213</ele>
        <time>2016-11-08T03:54:59Z</time>
      </trkpt>
      <trkpt lat="43.55523" lon="3.30327">
        <ele>213</ele>
        <time>2016-11-08T03:56:59Z</time>
      </trkpt>
      <trkpt lat="43.55529" lon="3.30329">
        <ele>214</ele>
        <time>2016-11-08T03:58:59Z</time>
      </trkpt>
      <trkpt lat="43.55546" lon="3.30352">
        <ele>221</ele>
        <time>2016-11-08T04:00:59Z</time>
      </trkpt>
      <trkpt lat="43.55564" lon="3.3038">
        <ele>226</ele>
        <time>2016-11-08T04:02:59Z</time>
      </trkpt>
      <trkpt lat="43.55567" lon="3.30386">
        <ele>228</ele>
        <time>2016-11-08T04:04:59Z</time>
      </trkpt>
      <trkpt lat="43.55579" lon="3.304">
        <ele>229</ele>
        <time>2016-11-08T04:06:59Z</time>
      </trkpt>
      <trkpt lat="43.55591" lon="3.30414">
        <ele>234</ele>
        <time>2016-11-08T04:08:59Z</time>
      </trkpt>
      <trkpt lat="43.55609" lon="3.30435">
        <ele>242</ele>
        <time>2016-11-08T04:10:59Z</time>
      </trkpt>
      <trkpt lat="43.55618" lon="3.30448">
        <ele>245</ele>
        <time>2016-11-08T04:12:59Z</time>
      </trkpt>
      <trkpt lat="43.55624" lon="3.30464">
        <ele>248</ele>
        <time>2016-11-08T04:14:59Z</time>
      </trkpt>
      <trkpt lat="43.55633" lon="3.30505">
        <ele>252</ele>
        <time>2016-11-08T04:18:59Z</time>
      </trkpt>
      <trkpt lat="43.55642" lon="3.30527">
        <ele>253</ele>
        <time>2016-11-08T04:22:59Z</time>
      </trkpt>
      <trkpt lat="43.55651" lon="3.30548">
        <ele>254</ele>
        <time>2016-11-08T04:24:59Z</time>
      </trkpt>
      <trkpt lat="43.55659" lon="3.30565">
        <ele>254</ele>
        <time>2016-11-08T04:26:59Z</time>
      </trkpt>
      <trkpt lat="43.55659" lon="3.30568">
        <ele>254</ele>
        <time>2016-11-08T04:28:59Z</time>
      </trkpt>
      <trkpt lat="43.55663" lon="3.30577">
        <ele>253</ele>
        <time>2016-11-08T04:30:59Z</time>
      </trkpt>
      <trkpt lat="43.55668" lon="3.30591">
        <ele>254</ele>
        <time>2016-11-08T04:32:59Z</time>
      </trkpt>
      <trkpt lat="43.55667" lon="3.30609">
        <ele>254</ele>
        <time>2016-11-08T04:34:59Z</time>
      </trkpt>
      <trkpt lat="43.55673" lon="3.30659">
        <ele>256</ele>
        <time>2016-11-08T04:40:59Z</time>
      </trkpt>
      <trkpt lat="43.55674" lon="3.30672">
        <ele>252.31640625</ele>
      </trkpt>
      <trkpt lat="43.55689" lon="3.30699">
        <ele>253.5625</ele>
      </trkpt>
      <trkpt lat="43.55754" lon="3.30756">
        <ele>262.66796875</ele>
      </trkpt>
      <trkpt lat="43.55761" lon="3.30761">
        <ele>264.0234375</ele>
      </trkpt>
      <trkpt lat="43.55755" lon="3.30756">
        <ele>262.77734375</ele>
      </trkpt>
      <trkpt lat="43.55783" lon="3.30755">
        <ele>266</ele>
        <time>2016-11-08T05:02:59Z</time>
      </trkpt>
      <trkpt lat="43.55788" lon="3.30756">
        <ele>267</ele>
        <time>2016-11-08T05:04:59Z</time>
      </trkpt>
      <trkpt lat="43.55797" lon="3.30757">
        <ele>268</ele>
        <time>2016-11-08T05:06:59Z</time>
      </trkpt>
      <trkpt lat="43.55804" lon="3.30755">
        <ele>269</ele>
        <time>2016-11-08T05:08:59Z</time>
      </trkpt>
      <trkpt lat="43.55817" lon="3.30752">
        <ele>270</ele>
        <time>2016-11-08T05:12:59Z</time>
      </trkpt>
      <trkpt lat="43.55831" lon="3.30741">
        <ele>272</ele>
        <time>2016-11-08T05:16:59Z</time>
      </trkpt>
      <trkpt lat="43.5584" lon="3.30741">
        <ele>271</ele>
        <time>2016-11-08T05:18:59Z</time>
      </trkpt>
      <trkpt lat="43.55843" lon="3.30741">
        <ele>270</ele>
        <time>2016-11-08T05:20:59Z</time>
      </trkpt>
      <trkpt lat="43.55842" lon="3.30741">
        <ele>270</ele>
        <time>2016-11-08T05:22:59Z</time>
      </trkpt>
      <trkpt lat="43.55844" lon="3.3075">
        <ele>269</ele>
        <time>2016-11-08T05:24:59Z</time>
      </trkpt>
      <trkpt lat="43.55843" lon="3.3076">
        <ele>270</ele>
        <time>2016-11-08T05:28:59Z</time>
      </trkpt>
      <trkpt lat="43.55843" lon="3.30758">
        <ele>270</ele>
        <time>2016-11-08T05:30:59Z</time>
      </trkpt>
      <trkpt lat="43.55842" lon="3.30757">
        <ele>270</ele>
        <time>2016-11-08T05:32:59Z</time>
      </trkpt>
      <trkpt lat="43.55844" lon="3.30766">
        <ele>269</ele>
        <time>2016-11-08T05:34:59Z</time>
      </trkpt>
      <trkpt lat="43.55857" lon="3.30801">
        <ele>266</ele>
        <time>2016-11-08T05:40:59Z</time>
      </trkpt>
      <trkpt lat="43.55856" lon="3.30829">
        <ele>266</ele>
        <time>2016-11-08T05:44:59Z</time>
      </trkpt>
      <trkpt lat="43.55853" lon="3.30846">
        <ele>268</ele>
        <time>2016-11-08T05:46:59Z</time>
      </trkpt>
      <trkpt lat="43.55852" lon="3.30859">
        <ele>269</ele>
        <time>2016-11-08T05:48:59Z</time>
      </trkpt>
      <trkpt lat="43.55854" lon="3.30866">
        <ele>269</ele>
        <time>2016-11-08T05:50:59Z</time>
      </trkpt>
      <trkpt lat="43.5585" lon="3.3087">
        <ele>270</ele>
        <time>2016-11-08T05:52:59Z</time>
      </trkpt>
      <trkpt lat="43.55853" lon="3.30872">
        <ele>270</ele>
        <time>2016-11-08T05:54:59Z</time>
      </trkpt>
      <trkpt lat="43.55854" lon="3.30872">
        <ele>270</ele>
        <time>2016-11-08T05:56:59Z</time>
      </trkpt>
      <trkpt lat="43.55857" lon="3.30875">
        <ele>269</ele>
        <time>2016-11-08T05:58:59Z</time>
      </trkpt>
      <trkpt lat="43.55857" lon="3.30875">
        <ele>269</ele>
        <time>2016-11-08T06:00:59Z</time>
      </trkpt>
      <trkpt lat="43.55854" lon="3.30868">
        <ele>269</ele>
        <time>2016-11-08T06:02:59Z</time>
      </trkpt>
      <trkpt lat="43.55854" lon="3.30868">
        <ele>269</ele>
        <time>2016-11-08T06:04:59Z</time>
      </trkpt>
      <trkpt lat="43.55854" lon="3.30868">
        <ele>269</ele>
        <time>2016-11-08T06:06:59Z</time>
      </trkpt>
      <trkpt lat="43.55857" lon="3.30869">
        <ele>269</ele>
        <time>2016-11-08T06:08:59Z</time>
      </trkpt>
      <trkpt lat="43.55863" lon="3.30867">
        <ele>268</ele>
        <time>2016-11-08T06:10:59Z</time>
      </trkpt>
      <trkpt lat="43.55864" lon="3.30867">
        <ele>268</ele>
        <time>2016-11-08T06:12:59Z</time>
      </trkpt>
      <trkpt lat="43.55866" lon="3.30869">
        <ele>267</ele>
        <time>2016-11-08T06:14:59Z</time>
      </trkpt>
      <trkpt lat="43.55876" lon="3.30875">
        <ele>266</ele>
        <time>2016-11-08T06:16:59Z</time>
      </trkpt>
      <trkpt lat="43.55879" lon="3.30881">
        <ele>266</ele>
        <time>2016-11-08T06:18:59Z</time>
      </trkpt>
      <trkpt lat="43.55886" lon="3.30894">
        <ele>266</ele>
        <time>2016-11-08T06:20:59Z</time>
      </trkpt>
      <trkpt lat="43.559" lon="3.30914">
        <ele>265</ele>
        <time>2016-11-08T06:28:59Z</time>
      </trkpt>
      <trkpt lat="43.55904" lon="3.30919">
        <ele>265</ele>
        <time>2016-11-08T06:30:59Z</time>
      </trkpt>
      <trkpt lat="43.55909" lon="3.30924">
        <ele>265</ele>
        <time>2016-11-08T06:32:59Z</time>
      </trkpt>
      <trkpt lat="43.55921" lon="3.3093">
        <ele>266</ele>
        <time>2016-11-08T06:34:59Z</time>
      </trkpt>
      <trkpt lat="43.55932" lon="3.3094">
        <ele>268</ele>
        <time>2016-11-08T06:36:59Z</time>
      </trkpt>
      <trkpt lat="43.55955" lon="3.3097">
        <ele>273</ele>
        <time>2016-11-08T06:44:59Z</time>
      </trkpt>
      <trkpt lat="43.55965" lon="3.30979">
        <ele>274</ele>
        <time>2016-11-08T06:46:59Z</time>
      </trkpt>
      <trkpt lat="43.55983" lon="3.31016">
        <ele>276</ele>
        <time>2016-11-08T06:56:59Z</time>
      </trkpt>
      <trkpt lat="43.5599" lon="3.31028">
        <ele>275</ele>
        <time>2016-11-08T06:58:59Z</time>
      </trkpt>
      <trkpt lat="43.55994" lon="3.31043">
        <ele>274</ele>
        <time>2016-11-08T07:00:59Z</time>
      </trkpt>
      <trkpt lat="43.56002" lon="3.31092">
        <ele>271</ele>
        <time>2016-11-08T07:10:59Z</time>
      </trkpt>
      <trkpt lat="43.56006" lon="3.31104">
        <ele>271</ele>
        <time>2016-11-08T07:12:59Z</time>
      </trkpt>
      <trkpt lat="43.56006" lon="3.31107">
        <ele>270</ele>
        <time>2016-11-08T07:14:59Z</time>
      </trkpt>
      <trkpt lat="43.5601" lon="3.31118">
        <ele>269</ele>
        <time>2016-11-08T07:16:59Z</time>
      </trkpt>
      <trkpt lat="43.56015" lon="3.31141">
        <ele>267</ele>
        <time>2016-11-08T07:18:59Z</time>
      </trkpt>
      <trkpt lat="43.56015" lon="3.31149">
        <ele>267</ele>
        <time>2016-11-08T07:20:59Z</time>
      </trkpt>
      <trkpt lat="43.56015" lon="3.31154">
        <ele>267</ele>
        <time>2016-11-08T07:22:59Z</time>
      </trkpt>
      <trkpt lat="43.56016" lon="3.31166">
        <ele>266</ele>
        <time>2016-11-08T07:24:59Z</time>
      </trkpt>
      <trkpt lat="43.56016" lon="3.31167">
        <ele>266</ele>
        <time>2016-11-08T07:26:59Z</time>
      </trkpt>
      <trkpt lat="43.56019" lon="3.31201">
        <ele>265</ele>
        <time>2016-11-08T07:32:59Z</time>
      </trkpt>
      <trkpt lat="43.5602" lon="3.31204">
        <ele>265</ele>
        <time>2016-11-08T07:34:59Z</time>
      </trkpt>
      <trkpt lat="43.56029" lon="3.31218">
        <ele>263</ele>
        <time>2016-11-08T07:36:59Z</time>
      </trkpt>
      <trkpt lat="43.56032" lon="3.31221">
        <ele>262</ele>
        <time>2016-11-08T07:38:59Z</time>
      </trkpt>
      <trkpt lat="43.56035" lon="3.31233">
        <ele>261</ele>
        <time>2016-11-08T07:40:59Z</time>
      </trkpt>
      <trkpt lat="43.56039" lon="3.31242">
        <ele>260</ele>
        <time>2016-11-08T07:42:59Z</time>
      </trkpt>
      <trkpt lat="43.56047" lon="3.31255">
        <ele>257</ele>
        <time>2016-11-08T07:44:59Z</time>
      </trkpt>
      <trkpt lat="43.56051" lon="3.31264">
        <ele>256</ele>
        <time>2016-11-08T07:46:59Z</time>
      </trkpt>
      <trkpt lat="43.56054" lon="3.31275">
        <ele>255</ele>
        <time>2016-11-08T07:48:59Z</time>
      </trkpt>
      <trkpt lat="43.56055" lon="3.3129">
        <ele>254</ele>
        <time>2016-11-08T07:50:59Z</time>
      </trkpt>
      <trkpt lat="43.56051" lon="3.31298">
        <ele>256</ele>
        <time>2016-11-08T07:52:59Z</time>
      </trkpt>
      <trkpt lat="43.56052" lon="3.31309">
        <ele>256</ele>
        <time>2016-11-08T07:54:59Z</time>
      </trkpt>
      <trkpt lat="43.5605" lon="3.31321">
        <ele>256</ele>
        <time>2016-11-08T07:56:59Z</time>
      </trkpt>
      <trkpt lat="43.5605" lon="3.31333">
        <ele>256</ele>
        <time>2016-11-08T07:58:59Z</time>
      </trkpt>
      <trkpt lat="43.56047" lon="3.31345">
        <ele>257</ele>
        <time>2016-11-08T08:00:59Z</time>
      </trkpt>
      <trkpt lat="43.56051" lon="3.31359">
        <ele>255</ele>
        <time>2016-11-08T08:02:59Z</time>
      </trkpt>
      <trkpt lat="43.5605" lon="3.31373">
        <ele>254</ele>
        <time>2016-11-08T08:04:59Z</time>
      </trkpt>
      <trkpt lat="43.56048" lon="3.31394">
        <ele>254</ele>
        <time>2016-11-08T08:06:59Z</time>
      </trkpt>
      <trkpt lat="43.56046" lon="3.31412">
        <ele>254</ele>
        <time>2016-11-08T08:08:59Z</time>
      </trkpt>
      <trkpt lat="43.56043" lon="3.31461">
        <ele>251</ele>
        <time>2016-11-08T08:10:59Z</time>
      </trkpt>
      <trkpt lat="43.56032" lon="3.31501">
        <ele>252</ele>
        <time>2016-11-08T08:12:59Z</time>
      </trkpt>
      <trkpt lat="43.56021" lon="3.3153">
        <ele>252</ele>
        <time>2016-11-08T08:14:59Z</time>
      </trkpt>
      <trkpt lat="43.56021" lon="3.31562">
        <ele>248</ele>
        <time>2016-11-08T08:16:59Z</time>
      </trkpt>
      <trkpt lat="43.56015" lon="3.31576">
        <ele>248</ele>
        <time>2016-11-08T08:18:59Z</time>
      </trkpt>
      <trkpt lat="43.56002" lon="3.31615">
        <ele>248</ele>
        <time>2016-11-08T08:20:59Z</time>
      </trkpt>
      <trkpt lat="43.56001" lon="3.31618">
        <ele>248</ele>
        <time>2016-11-08T08:22:59Z</time>
      </trkpt>
      <trkpt lat="43.56006" lon="3.31629">
        <ele>246</ele>
        <time>2016-11-08T08:24:59Z</time>
      </trkpt>
      <trkpt lat="43.56008" lon="3.3164">
        <ele>244</ele>
        <time>2016-11-08T08:26:59Z</time>
      </trkpt>
      <trkpt lat="43.56006" lon="3.31658">
        <ele>243</ele>
        <time>2016-11-08T08:28:59Z</time>
      </trkpt>
      <trkpt lat="43.56003" lon="3.31677">
        <ele>243</ele>
        <time>2016-11-08T08:30:59Z</time>
      </trkpt>
      <trkpt lat="43.56013" lon="3.317">
        <ele>241</ele>
        <time>2016-11-08T08:32:59Z</time>
      </trkpt>
      <trkpt lat="43.56016" lon="3.31717">
        <ele>241</ele>
        <time>2016-11-08T08:34:59Z</time>
      </trkpt>
      <trkpt lat="43.56025" lon="3.31729">
        <ele>239</ele>
        <time>2016-11-08T08:36:59Z</time>
      </trkpt>
      <trkpt lat="43.56044" lon="3.31736">
        <ele>235</ele>
        <time>2016-11-08T08:38:59Z</time>
      </trkpt>
      <trkpt lat="43.56052" lon="3.31744">
        <ele>233</ele>
        <time>2016-11-08T08:40:59Z</time>
      </trkpt>
      <trkpt lat="43.56065" lon="3.31758">
        <ele>231</ele>
        <time>2016-11-08T08:42:59Z</time>
      </trkpt>
      <trkpt lat="43.56073" lon="3.31766">
        <ele>230</ele>
        <time>2016-11-08T08:44:59Z</time>
      </trkpt>
      <trkpt lat="43.56083" lon="3.31776">
        <ele>228</ele>
        <time>2016-11-08T08:46:59Z</time>
      </trkpt>
      <trkpt lat="43.56086" lon="3.31786">
        <ele>228</ele>
        <time>2016-11-08T08:48:59Z</time>
      </trkpt>
      <trkpt lat="43.56089" lon="3.31795">
        <ele>227</ele>
        <time>2016-11-08T08:50:59Z</time>
      </trkpt>
      <trkpt lat="43.56088" lon="3.31806">
        <ele>228</ele>
        <time>2016-11-08T08:52:59Z</time>
      </trkpt>
      <trkpt lat="43.56087" lon="3.31816">
        <ele>229</ele>
        <time>2016-11-08T08:54:59Z</time>
      </trkpt>
      <trkpt lat="43.561" lon="3.31828">
        <ele>226</ele>
        <time>2016-11-08T08:56:59Z</time>
      </trkpt>
      <trkpt lat="43.56109" lon="3.31838">
        <ele>224</ele>
        <time>2016-11-08T08:58:59Z</time>
      </trkpt>
      <trkpt lat="43.56116" lon="3.31846">
        <ele>222</ele>
        <time>2016-11-08T09:00:59Z</time>
      </trkpt>
      <trkpt lat="43.56119" lon="3.31847">
        <ele>221</ele>
        <time>2016-11-08T09:02:59Z</time>
      </trkpt>
      <trkpt lat="43.56132" lon="3.31869">
        <ele>217</ele>
        <time>2016-11-08T09:04:59Z</time>
      </trkpt>
      <trkpt lat="43.56144" lon="3.31883">
        <ele>214</ele>
        <time>2016-11-08T09:06:59Z</time>
      </trkpt>
      <trkpt lat="43.5615" lon="3.31896">
        <ele>212</ele>
        <time>2016-11-08T09:08:59Z</time>
      </trkpt>
      <trkpt lat="43.56151" lon="3.31897">
        <ele>212</ele>
        <time>2016-11-08T09:10:59Z</time>
      </trkpt>
      <trkpt lat="43.56152" lon="3.31903">
        <ele>212</ele>
        <time>2016-11-08T09:12:59Z</time>
      </trkpt>
      <trkpt lat="43.56153" lon="3.31907">
        <ele>211</ele>
        <time>2016-11-08T09:14:59Z</time>
      </trkpt>
      <trkpt lat="43.56159" lon="3.31918">
        <ele>210</ele>
        <time>2016-11-08T09:16:59Z</time>
      </trkpt>
      <trkpt lat="43.56162" lon="3.31933">
        <ele>209</ele>
        <time>2016-11-08T09:18:59Z</time>
      </trkpt>
      <trkpt lat="43.5617" lon="3.31946">
        <ele>208</ele>
        <time>2016-11-08T09:24:59Z</time>
      </trkpt>
      <trkpt lat="43.56178" lon="3.31964">
        <ele>207</ele>
        <time>2016-11-08T09:26:59Z</time>
      </trkpt>
      <trkpt lat="43.56187" lon="3.31976">
        <ele>206</ele>
        <time>2016-11-08T09:28:59Z</time>
      </trkpt>
      <trkpt lat="43.56187" lon="3.31978">
        <ele>206</ele>
        <time>2016-11-08T09:30:59Z</time>
      </trkpt>
      <trkpt lat="43.56188" lon="3.31981">
        <ele>206</ele>
        <time>2016-11-08T09:32:59Z</time>
      </trkpt>
      <trkpt lat="43.56196" lon="3.31993">
        <ele>205</ele>
        <time>2016-11-08T09:34:59Z</time>
      </trkpt>
      <trkpt lat="43.56206" lon="3.32006">
        <ele>203</ele>
        <time>2016-11-08T09:36:59Z</time>
      </trkpt>
      <trkpt lat="43.56213" lon="3.32027">
        <ele>201</ele>
        <time>2016-11-08T09:40:59Z</time>
      </trkpt>
      <trkpt lat="43.56213" lon="3.32028">
        <ele>201</ele>
        <time>2016-11-08T09:42:59Z</time>
      </trkpt>
      <trkpt lat="43.56227" lon="3.32054">
        <ele>198</ele>
        <time>2016-11-08T09:52:59Z</time>
      </trkpt>
      <trkpt lat="43.5625" lon="3.32075">
        <ele>194</ele>
        <time>2016-11-08T09:58:59Z</time>
      </trkpt>
      <trkpt lat="43.5626" lon="3.32085">
        <ele>195</ele>
        <time>2016-11-08T10:00:59Z</time>
      </trkpt>
      <trkpt lat="43.56275" lon="3.32109">
        <ele>196</ele>
        <time>2016-11-08T10:04:59Z</time>
      </trkpt>
      <trkpt lat="43.56279" lon="3.32117">
        <ele>196</ele>
        <time>2016-11-08T10:06:59Z</time>
      </trkpt>
      <trkpt lat="43.56282" lon="3.32173">
        <ele>195</ele>
        <time>2016-11-08T10:10:59Z</time>
      </trkpt>
      <trkpt lat="43.56317" lon="3.32226">
        <ele>191</ele>
        <time>2016-11-08T10:20:59Z</time>
      </trkpt>
      <trkpt lat="43.56319" lon="3.32219">
        <ele>191</ele>
        <time>2016-11-08T10:22:59Z</time>
      </trkpt>
      <trkpt lat="43.56316" lon="3.32209">
        <ele>192</ele>
        <time>2016-11-08T10:24:59Z</time>
      </trkpt>
      <trkpt lat="43.56314" lon="3.32188">
        <ele>194</ele>
        <time>2016-11-08T10:26:59Z</time>
      </trkpt>
      <trkpt lat="43.56315" lon="3.32174">
        <ele>195</ele>
        <time>2016-11-08T10:28:59Z</time>
      </trkpt>
      <trkpt lat="43.5631" lon="3.32142">
        <ele>196</ele>
        <time>2016-11-08T11:36:59Z</time>
      </trkpt>
      <trkpt lat="43.56309" lon="3.3214">
        <ele>196</ele>
        <time>2016-11-08T11:38:59Z</time>
      </trkpt>
      <trkpt lat="43.56302" lon="3.32129">
        <ele>196</ele>
        <time>2016-11-08T11:40:59Z</time>
      </trkpt>
      <trkpt lat="43.56309" lon="3.32142">
        <ele>196</ele>
        <time>2016-11-08T11:42:59Z</time>
      </trkpt>
      <trkpt lat="43.5631" lon="3.3215">
        <ele>196</ele>
        <time>2016-11-08T11:44:59Z</time>
      </trkpt>
      <trkpt lat="43.56314" lon="3.32167">
        <ele>195</ele>
        <time>2016-11-08T11:56:59Z</time>
      </trkpt>
      <trkpt lat="43.56313" lon="3.32174">
        <ele>195</ele>
        <time>2016-11-08T11:58:59Z</time>
      </trkpt>
      <trkpt lat="43.56313" lon="3.32174">
        <ele>195</ele>
        <time>2016-11-08T12:00:59Z</time>
      </trkpt>
      <trkpt lat="43.56314" lon="3.32173">
        <ele>195</ele>
        <time>2016-11-08T12:02:59Z</time>
      </trkpt>
      <trkpt lat="43.56315" lon="3.32175">
        <ele>195</ele>
        <time>2016-11-08T12:04:59Z</time>
      </trkpt>
      <trkpt lat="43.56316" lon="3.32177">
        <ele>194</ele>
        <time>2016-11-08T12:06:59Z</time>
      </trkpt>
      <trkpt lat="43.56319" lon="3.32184">
        <ele>194</ele>
        <time>2016-11-08T12:12:59Z</time>
      </trkpt>
      <trkpt lat="43.56317" lon="3.32188">
        <ele>194</ele>
        <time>2016-11-08T12:14:59Z</time>
      </trkpt>
      <trkpt lat="43.56317" lon="3.32201">
        <ele>193</ele>
        <time>2016-11-08T12:16:59Z</time>
      </trkpt>
      <trkpt lat="43.56325" lon="3.32236">
        <ele>190</ele>
        <time>2016-11-08T12:20:59Z</time>
      </trkpt>
      <trkpt lat="43.56307" lon="3.32291">
        <ele>188</ele>
        <time>2016-11-08T12:32:59Z</time>
      </trkpt>
      <trkpt lat="43.56245" lon="3.3248">
        <ele>186</ele>
        <time>2016-11-08T12:54:59Z</time>
      </trkpt>
      <trkpt lat="43.56239" lon="3.32496">
        <ele>187</ele>
        <time>2016-11-08T12:56:59Z</time>
      </trkpt>
      <trkpt lat="43.56233" lon="3.3251">
        <ele>189</ele>
        <time>2016-11-08T12:58:59Z</time>
      </trkpt>
      <trkpt lat="43.56222" lon="3.3253">
        <ele>193</ele>
        <time>2016-11-08T13:00:59Z</time>
      </trkpt>
      <trkpt lat="43.56215" lon="3.32528">
        <ele>195</ele>
        <time>2016-11-08T13:02:59Z</time>
      </trkpt>
      <trkpt lat="43.56219" lon="3.32499">
        <ele>195</ele>
        <time>2016-11-08T13:04:59Z</time>
      </trkpt>
      <trkpt lat="43.56222" lon="3.32503">
        <ele>194</ele>
        <time>2016-11-08T13:06:59Z</time>
      </trkpt>
      <trkpt lat="43.56221" lon="3.32497">
        <ele>194</ele>
        <time>2016-11-08T13:08:59Z</time>
      </trkpt>
      <trkpt lat="43.56227" lon="3.3242">
        <ele>196</ele>
        <time>2016-11-08T13:24:59Z</time>
      </trkpt>
      <trkpt lat="43.56226" lon="3.32416">
        <ele>197</ele>
        <time>2016-11-08T13:26:59Z</time>
      </trkpt>
      <trkpt lat="43.56227" lon="3.32413">
        <ele>196</ele>
        <time>2016-11-08T13:28:59Z</time>
      </trkpt>
      <trkpt lat="43.56227" lon="3.32384">
        <ele>197</ele>
        <time>2016-11-08T13:30:59Z</time>
      </trkpt>
      <trkpt lat="43.56226" lon="3.32374">
        <ele>198</ele>
        <time>2016-11-08T13:32:59Z</time>
      </trkpt>
      <trkpt lat="43.56224" lon="3.3237">
        <ele>198</ele>
        <time>2016-11-08T13:34:59Z</time>
      </trkpt>
      <trkpt lat="43.56221" lon="3.32365">
        <ele>199</ele>
        <time>2016-11-08T13:36:59Z</time>
      </trkpt>
      <trkpt lat="43.56222" lon="3.32361">
        <ele>199</ele>
        <time>2016-11-08T13:38:59Z</time>
      </trkpt>
      <trkpt lat="43.56223" lon="3.32361">
        <ele>199</ele>
        <time>2016-11-08T13:40:59Z</time>
      </trkpt>
      <trkpt lat="43.56222" lon="3.32363">
        <ele>199</ele>
        <time>2016-11-08T13:42:59Z</time>
      </trkpt>
      <trkpt lat="43.56222" lon="3.32366">
        <ele>199</ele>
        <time>2016-11-08T13:44:59Z</time>
      </trkpt>
      <trkpt lat="43.56222" lon="3.32362">
        <ele>199</ele>
        <time>2016-11-08T13:46:59Z</time>
      </trkpt>
      <trkpt lat="43.56223" lon="3.32359">
        <ele>199</ele>
        <time>2016-11-08T13:48:59Z</time>
      </trkpt>
      <trkpt lat="43.56225" lon="3.32359">
        <ele>198</ele>
        <time>2016-11-08T13:50:59Z</time>
      </trkpt>
      <trkpt lat="43.56224" lon="3.32359">
        <ele>198</ele>
        <time>2016-11-08T13:52:59Z</time>
      </trkpt>
      <trkpt lat="43.56223" lon="3.32362">
        <ele>199</ele>
        <time>2016-11-08T13:54:59Z</time>
      </trkpt>
      <trkpt lat="43.56222" lon="3.3236">
        <ele>199</ele>
        <time>2016-11-08T13:56:59Z</time>
      </trkpt>
      <trkpt lat="43.56221" lon="3.32362">
        <ele>199</ele>
        <time>2016-11-08T13:58:59Z</time>
      </trkpt>
      <trkpt lat="43.56222" lon="3.32371">
        <ele>199</ele>
        <time>2016-11-08T14:00:59Z</time>
      </trkpt>
      <trkpt lat="43.56215" lon="3.32379">
        <ele>201</ele>
        <time>2016-11-08T14:02:59Z</time>
      </trkpt>
      <trkpt lat="43.56216" lon="3.32388">
        <ele>201</ele>
        <time>2016-11-08T14:04:59Z</time>
      </trkpt>
      <trkpt lat="43.56215" lon="3.32392">
        <ele>201</ele>
        <time>2016-11-08T14:06:59Z</time>
      </trkpt>
      <trkpt lat="43.56207" lon="3.32412">
        <ele>205</ele>
        <time>2016-11-08T14:08:59Z</time>
      </trkpt>
      <trkpt lat="43.56157" lon="3.32537">
        <ele>214</ele>
        <time>2016-11-08T14:38:59Z</time>
      </trkpt>
      <trkpt lat="43.56154" lon="3.32542">
        <ele>214</ele>
        <time>2016-11-08T14:40:59Z</time>
      </trkpt>
      <trkpt lat="43.5615" lon="3.32551">
        <ele>215</ele>
        <time>2016-11-08T14:42:59Z</time>
      </trkpt>
      <trkpt lat="43.56147" lon="3.32554">
        <ele>215</ele>
        <time>2016-11-08T14:44:59Z</time>
      </trkpt>
      <trkpt lat="43.56136" lon="3.32571">
        <ele>216</ele>
        <time>2016-11-08T14:46:59Z</time>
      </trkpt>
      <trkpt lat="43.56123" lon="3.32588">
        <ele>218</ele>
        <time>2016-11-08T14:48:59Z</time>
      </trkpt>
      <trkpt lat="43.5611" lon="3.32599">
        <ele>220</ele>
        <time>2016-11-08T14:50:59Z</time>
      </trkpt>
      <trkpt lat="43.56093" lon="3.32608">
        <ele>223</ele>
        <time>2016-11-08T14:52:59Z</time>
      </trkpt>
      <trkpt lat="43.56052" lon="3.32629">
        <ele>230</ele>
        <time>2016-11-08T15:00:59Z</time>
      </trkpt>
      <trkpt lat="43.56039" lon="3.32638">
        <ele>232</ele>
        <time>2016-11-08T15:06:59Z</time>
      </trkpt>
      <trkpt lat="43.56036" lon="3.32646">
        <ele>231</ele>
        <time>2016-11-08T15:10:59Z</time>
      </trkpt>
      <trkpt lat="43.56036" lon="3.32655">
        <ele>230</ele>
        <time>2016-11-08T15:12:59Z</time>
      </trkpt>
      <trkpt lat="43.56031" lon="3.3268">
        <ele>230</ele>
        <time>2016-11-08T15:18:59Z</time>
      </trkpt>
      <trkpt lat="43.56028" lon="3.32705">
        <ele>230</ele>
        <time>2016-11-08T15:20:59Z</time>
      </trkpt>
      <trkpt lat="43.56026" lon="3.32718">
        <ele>231</ele>
        <time>2016-11-08T15:22:59Z</time>
      </trkpt>
      <trkpt lat="43.56027" lon="3.32726">
        <ele>231</ele>
        <time>2016-11-08T15:24:59Z</time>
      </trkpt>
      <trkpt lat="43.56028" lon="3.3273">
        <ele>230</ele>
        <time>2016-11-08T15:26:59Z</time>
      </trkpt>
      <trkpt lat="43.5604" lon="3.32756">
        <ele>226</ele>
        <time>2016-11-08T15:30:59Z</time>
      </trkpt>
      <trkpt lat="43.56043" lon="3.3278">
        <ele>225</ele>
        <time>2016-11-08T15:32:59Z</time>
      </trkpt>
      <trkpt lat="43.56044" lon="3.32786">
        <ele>225</ele>
        <time>2016-11-08T15:34:59Z</time>
      </trkpt>
      <trkpt lat="43.56044" lon="3.32824">
        <ele>226</ele>
        <time>2016-11-08T15:38:59Z</time>
      </trkpt>
      <trkpt lat="43.56033" lon="3.32861">
        <ele>229</ele>
        <time>2016-11-08T15:44:59Z</time>
      </trkpt>
      <trkpt lat="43.56028" lon="3.32872">
        <ele>230</ele>
        <time>2016-11-08T15:48:59Z</time>
      </trkpt>
      <trkpt lat="43.56008" lon="3.32902">
        <ele>235</ele>
        <time>2016-11-08T15:50:59Z</time>
      </trkpt>
      <trkpt lat="43.56004" lon="3.32906">
        <ele>236</ele>
        <time>2016-11-08T15:52:59Z</time>
      </trkpt>
      <trkpt lat="43.56003" lon="3.3291">
        <ele>236</ele>
        <time>2016-11-08T15:54:59Z</time>
      </trkpt>
      <trkpt lat="43.56001" lon="3.32926">
        <ele>235</ele>
        <time>2016-11-08T15:56:59Z</time>
      </trkpt>
      <trkpt lat="43.55996" lon="3.32936">
        <ele>236</ele>
        <time>2016-11-08T15:58:59Z</time>
      </trkpt>
      <trkpt lat="43.55996" lon="3.3294">
        <ele>235</ele>
        <time>2016-11-08T16:04:59Z</time>
      </trkpt>
      <trkpt lat="43.55997" lon="3.32941">
        <ele>235</ele>
        <time>2016-11-08T16:06:59Z</time>
      </trkpt>
      <trkpt lat="43.55996" lon="3.32943">
        <ele>235</ele>
        <time>2016-11-08T16:08:59Z</time>
      </trkpt>
      <trkpt lat="43.55999" lon="3.32947">
        <ele>234</ele>
        <time>2016-11-08T16:10:59Z</time>
      </trkpt>
      <trkpt lat="43.56" lon="3.32948">
        <ele>234</ele>
        <time>2016-11-08T16:12:59Z</time>
      </trkpt>
      <trkpt lat="43.56005" lon="3.32947">
        <ele>232</ele>
        <time>2016-11-08T16:14:59Z</time>
      </trkpt>
      <trkpt lat="43.55999" lon="3.32948">
        <ele>234</ele>
        <time>2016-11-08T16:16:59Z</time>
      </trkpt>
      <trkpt lat="43.55992" lon="3.32963">
        <ele>235</ele>
        <time>2016-11-08T16:18:59Z</time>
      </trkpt>
      <trkpt lat="43.55992" lon="3.32964">
        <ele>235</ele>
        <time>2016-11-08T16:20:59Z</time>
      </trkpt>
      <trkpt lat="43.55992" lon="3.32965">
        <ele>234</ele>
        <time>2016-11-08T16:22:59Z</time>
      </trkpt>
      <trkpt lat="43.55989" lon="3.32962">
        <ele>235</ele>
        <time>2016-11-08T16:24:59Z</time>
      </trkpt>
      <trkpt lat="43.55984" lon="3.32962">
        <ele>236</ele>
        <time>2016-11-08T16:26:59Z</time>
      </trkpt>
      <trkpt lat="43.55976" lon="3.32965">
        <ele>237</ele>
        <time>2016-11-08T16:28:59Z</time>
      </trkpt>
      <trkpt lat="43.55963" lon="3.32967">
        <ele>239</ele>
        <time>2016-11-08T16:32:59Z</time>
      </trkpt>
      <trkpt lat="43.55955" lon="3.32969">
        <ele>240</ele>
        <time>2016-11-08T16:34:59Z</time>
      </trkpt>
      <trkpt lat="43.55934" lon="3.3298">
        <ele>243</ele>
        <time>2016-11-08T16:36:59Z</time>
      </trkpt>
      <trkpt lat="43.55922" lon="3.32989">
        <ele>244</ele>
        <time>2016-11-08T16:38:59Z</time>
      </trkpt>
      <trkpt lat="43.55918" lon="3.32992">
        <ele>244</ele>
        <time>2016-11-08T16:40:59Z</time>
      </trkpt>
      <trkpt lat="43.5591" lon="3.3301">
        <ele>243</ele>
        <time>2016-11-08T16:42:59Z</time>
      </trkpt>
      <trkpt lat="43.5591" lon="3.33018">
        <ele>243</ele>
        <time>2016-11-08T16:44:59Z</time>
      </trkpt>
      <trkpt lat="43.55881" lon="3.33071">
        <ele>244</ele>
        <time>2016-11-08T17:00:59Z</time>
      </trkpt>
      <trkpt lat="43.55859" lon="3.33101">
        <ele>246</ele>
        <time>2016-11-08T17:04:59Z</time>
      </trkpt>
      <trkpt lat="43.55858" lon="3.33105">
        <ele>246</ele>
        <time>2016-11-08T17:06:59Z</time>
      </trkpt>
      <trkpt lat="43.5583" lon="3.33162">
        <ele>245</ele>
        <time>2016-11-08T17:10:59Z</time>
      </trkpt>
      <trkpt lat="43.55822" lon="3.33178">
        <ele>247</ele>
        <time>2016-11-08T17:12:59Z</time>
      </trkpt>
      <trkpt lat="43.55819" lon="3.33186">
        <ele>248</ele>
        <time>2016-11-08T17:14:59Z</time>
      </trkpt>
      <trkpt lat="43.55811" lon="3.33206">
        <ele>251</ele>
        <time>2016-11-08T17:16:59Z</time>
      </trkpt>
      <trkpt lat="43.55805" lon="3.33223">
        <ele>253</ele>
        <time>2016-11-08T17:18:59Z</time>
      </trkpt>
      <trkpt lat="43.5578" lon="3.33297">
        <ele>257</ele>
        <time>2016-11-08T17:26:59Z</time>
      </trkpt>
      <trkpt lat="43.55723" lon="3.3341">
        <ele>256</ele>
        <time>2016-11-08T17:48:59Z</time>
      </trkpt>
      <trkpt lat="43.55708" lon="3.33437">
        <ele>258</ele>
        <time>2016-11-08T17:50:59Z</time>
      </trkpt>
      <trkpt lat="43.55706" lon="3.33441">
        <ele>258</ele>
        <time>2016-11-08T17:52:59Z</time>
      </trkpt>
      <trkpt lat="43.55704" lon="3.33448">
        <ele>258</ele>
        <time>2016-11-08T17:54:59Z</time>
      </trkpt>
      <trkpt lat="43.55696" lon="3.33465">
        <ele>260</ele>
        <time>2016-11-08T17:56:59Z</time>
      </trkpt>
      <trkpt lat="43.55692" lon="3.33483">
        <ele>261</ele>
        <time>2016-11-08T17:58:59Z</time>
      </trkpt>
      <trkpt lat="43.55689" lon="3.33506">
        <ele>262</ele>
        <time>2016-11-08T18:00:59Z</time>
      </trkpt>
      <trkpt lat="43.55662" lon="3.33673">
        <ele>267</ele>
        <time>2016-11-08T18:32:59Z</time>
      </trkpt>
      <trkpt lat="43.5566" lon="3.33701">
        <ele>267</ele>
        <time>2016-11-08T18:40:59Z</time>
      </trkpt>
      <trkpt lat="43.55658" lon="3.33752">
        <ele>267</ele>
        <time>2016-11-08T18:44:59Z</time>
      </trkpt>
      <trkpt lat="43.55641" lon="3.33826">
        <ele>272</ele>
        <time>2016-11-08T18:56:59Z</time>
      </trkpt>
      <trkpt lat="43.55638" lon="3.33838">
        <ele>274</ele>
        <time>2016-11-08T18:58:59Z</time>
      </trkpt>
      <trkpt lat="43.5563" lon="3.33921">
        <ele>280</ele>
        <time>2016-11-08T19:06:59Z</time>
      </trkpt>
      <trkpt lat="43.55629" lon="3.33932">
        <ele>281</ele>
        <time>2016-11-08T19:08:59Z</time>
      </trkpt>
      <trkpt lat="43.55629" lon="3.3396">
        <ele>282</ele>
        <time>2016-11-08T19:10:59Z</time>
      </trkpt>
      <trkpt lat="43.55629" lon="3.33964">
        <ele>282</ele>
        <time>2016-11-08T19:12:59Z</time>
      </trkpt>
      <trkpt lat="43.55624" lon="3.33993">
        <ele>286</ele>
        <time>2016-11-08T19:14:59Z</time>
      </trkpt>
      <trkpt lat="43.55617" lon="3.34014">
        <ele>289</ele>
        <time>2016-11-08T19:16:59Z</time>
      </trkpt>
      <trkpt lat="43.55615" lon="3.34028">
        <ele>291</ele>
        <time>2016-11-08T19:18:59Z</time>
      </trkpt>
      <trkpt lat="43.55615" lon="3.34045">
        <ele>293</ele>
        <time>2016-11-08T19:20:59Z</time>
      </trkpt>
      <trkpt lat="43.55615" lon="3.34049">
        <ele>293</ele>
        <time>2016-11-08T19:22:59Z</time>
      </trkpt>
      <trkpt lat="43.55616" lon="3.34055">
        <ele>293</ele>
        <time>2016-11-08T19:24:59Z</time>
      </trkpt>
      <trkpt lat="43.5564" lon="3.34099">
        <ele>291</ele>
        <time>2016-11-08T19:26:59Z</time>
      </trkpt>
      <trkpt lat="43.55644" lon="3.34112">
        <ele>292</ele>
        <time>2016-11-08T19:28:59Z</time>
      </trkpt>
      <trkpt lat="43.55659" lon="3.34145">
        <ele>292</ele>
        <time>2016-11-08T19:36:59Z</time>
      </trkpt>
      <trkpt lat="43.55659" lon="3.34155">
        <ele>293</ele>
        <time>2016-11-08T19:38:59Z</time>
      </trkpt>
      <trkpt lat="43.55656" lon="3.34164">
        <ele>295</ele>
        <time>2016-11-08T19:40:59Z</time>
      </trkpt>
      <trkpt lat="43.55653" lon="3.34171">
        <ele>296</ele>
        <time>2016-11-08T19:42:59Z</time>
      </trkpt>
      <trkpt lat="43.55627" lon="3.34206">
        <ele>299</ele>
        <time>2016-11-08T19:44:59Z</time>
      </trkpt>
      <trkpt lat="43.55615" lon="3.3422">
        <ele>301</ele>
        <time>2016-11-08T19:48:59Z</time>
      </trkpt>
      <trkpt lat="43.55539" lon="3.34329">
        <ele>307</ele>
        <time>2016-11-08T20:00:59Z</time>
      </trkpt>
      <trkpt lat="43.55528" lon="3.34345">
        <ele>308</ele>
        <time>2016-11-08T20:02:59Z</time>
      </trkpt>
      <trkpt lat="43.5552" lon="3.3436">
        <ele>309</ele>
        <time>2016-11-08T20:06:59Z</time>
      </trkpt>
      <trkpt lat="43.5551" lon="3.34389">
        <ele>309</ele>
        <time>2016-11-08T20:08:59Z</time>
      </trkpt>
      <trkpt lat="43.55499" lon="3.34414">
        <ele>311</ele>
        <time>2016-11-08T20:10:59Z</time>
      </trkpt>
      <trkpt lat="43.55479" lon="3.34447">
        <ele>309</ele>
        <time>2016-11-08T21:24:59Z</time>
      </trkpt>
      <trkpt lat="43.55473" lon="3.34477">
        <ele>308</ele>
        <time>2016-11-08T21:26:59Z</time>
      </trkpt>
      <trkpt lat="43.55464" lon="3.34523">
        <ele>307</ele>
        <time>2016-11-08T21:32:59Z</time>
      </trkpt>
      <trkpt lat="43.55462" lon="3.34543">
        <ele>306</ele>
        <time>2016-11-08T21:34:59Z</time>
      </trkpt>
      <trkpt lat="43.55459" lon="3.34553">
        <ele>306</ele>
        <time>2016-11-08T21:36:59Z</time>
      </trkpt>
      <trkpt lat="43.55452" lon="3.34562">
        <ele>307</ele>
        <time>2016-11-08T21:38:59Z</time>
      </trkpt>
      <trkpt lat="43.55436" lon="3.34575">
        <ele>310</ele>
        <time>2016-11-08T21:40:59Z</time>
      </trkpt>
      <trkpt lat="43.55428" lon="3.34589">
        <ele>312</ele>
        <time>2016-11-08T21:42:59Z</time>
      </trkpt>
      <trkpt lat="43.55428" lon="3.3459">
        <ele>312</ele>
        <time>2016-11-08T21:44:59Z</time>
      </trkpt>
      <trkpt lat="43.55426" lon="3.34592">
        <ele>313</ele>
        <time>2016-11-08T21:46:59Z</time>
      </trkpt>
      <trkpt lat="43.55394" lon="3.34673">
        <ele>311</ele>
        <time>2016-11-08T21:54:59Z</time>
      </trkpt>
      <trkpt lat="43.55392" lon="3.34679">
        <ele>311</ele>
        <time>2016-11-08T21:56:59Z</time>
      </trkpt>
      <trkpt lat="43.55392" lon="3.34678">
        <ele>311</ele>
        <time>2016-11-08T21:58:59Z</time>
      </trkpt>
      <trkpt lat="43.55386" lon="3.34697">
        <ele>308</ele>
        <time>2016-11-08T22:00:59Z</time>
      </trkpt>
      <trkpt lat="43.55384" lon="3.34715">
        <ele>307</ele>
        <time>2016-11-08T22:02:59Z</time>
      </trkpt>
      <trkpt lat="43.55375" lon="3.34736">
        <ele>304</ele>
        <time>2016-11-08T22:04:59Z</time>
      </trkpt>
      <trkpt lat="43.55366" lon="3.34745">
        <ele>303</ele>
        <time>2016-11-08T22:06:59Z</time>
      </trkpt>
      <trkpt lat="43.55358" lon="3.34746">
        <ele>302</ele>
        <time>2016-11-08T22:08:59Z</time>
      </trkpt>
      <trkpt lat="43.55347" lon="3.34744">
        <ele>301</ele>
        <time>2016-11-08T22:10:59Z</time>
      </trkpt>
      <trkpt lat="43.55339" lon="3.34728">
        <ele>300</ele>
        <time>2016-11-08T22:12:59Z</time>
      </trkpt>
      <trkpt lat="43.55337" lon="3.34726">
        <ele>300</ele>
        <time>2016-11-08T22:14:59Z</time>
      </trkpt>
      <trkpt lat="43.55331" lon="3.3471">
        <ele>299</ele>
        <time>2016-11-08T22:16:59Z</time>
      </trkpt>
      <trkpt lat="43.55329" lon="3.34689">
        <ele>299</ele>
        <time>2016-11-08T22:18:59Z</time>
      </trkpt>
      <trkpt lat="43.55327" lon="3.3468">
        <ele>299</ele>
        <time>2016-11-08T22:20:59Z</time>
      </trkpt>
      <trkpt lat="43.55318" lon="3.34668">
        <ele>297</ele>
        <time>2016-11-08T22:22:59Z</time>
      </trkpt>
      <trkpt lat="43.55308" lon="3.34664">
        <ele>295</ele>
        <time>2016-11-08T22:24:59Z</time>
      </trkpt>
      <trkpt lat="43.55289" lon="3.34664">
        <ele>290</ele>
        <time>2016-11-08T22:28:59Z</time>
      </trkpt>
      <trkpt lat="43.55276" lon="3.34655">
        <ele>287</ele>
        <time>2016-11-08T22:30:59Z</time>
      </trkpt>
      <trkpt lat="43.55267" lon="3.34668">
        <ele>285</ele>
        <time>2016-11-08T22:32:59Z</time>
      </trkpt>
      <trkpt lat="43.5526" lon="3.34684">
        <ele>283</ele>
        <time>2016-11-08T22:34:59Z</time>
      </trkpt>
      <trkpt lat="43.55261" lon="3.34692">
        <ele>283</ele>
        <time>2016-11-08T22:36:59Z</time>
      </trkpt>
      <trkpt lat="43.55259" lon="3.34707">
        <ele>282</ele>
        <time>2016-11-08T22:38:59Z</time>
      </trkpt>
      <trkpt lat="43.55249" lon="3.34725">
        <ele>279</ele>
        <time>2016-11-08T22:40:59Z</time>
      </trkpt>
      <trkpt lat="43.55231" lon="3.34739">
        <ele>277</ele>
        <time>2016-11-08T22:42:59Z</time>
      </trkpt>
      <trkpt lat="43.55223" lon="3.34741">
        <ele>276</ele>
        <time>2016-11-08T22:44:59Z</time>
      </trkpt>
      <trkpt lat="43.55205" lon="3.34742">
        <ele>274</ele>
        <time>2016-11-08T22:46:59Z</time>
      </trkpt>
      <trkpt lat="43.55188" lon="3.34761">
        <ele>271</ele>
        <time>2016-11-08T22:48:59Z</time>
      </trkpt>
      <trkpt lat="43.55141" lon="3.34809">
        <ele>263</ele>
        <time>2016-11-08T23:00:59Z</time>
      </trkpt>
      <trkpt lat="43.55129" lon="3.34824">
        <ele>261</ele>
        <time>2016-11-08T23:02:59Z</time>
      </trkpt>
      <trkpt lat="43.55112" lon="3.34837">
        <ele>259</ele>
        <time>2016-11-08T23:04:59Z</time>
      </trkpt>
      <trkpt lat="43.55092" lon="3.3485">
        <ele>257</ele>
        <time>2016-11-08T23:06:59Z</time>
      </trkpt>
      <trkpt lat="43.55072" lon="3.34867">
        <ele>254</ele>
        <time>2016-11-08T23:08:59Z</time>
      </trkpt>
      <trkpt lat="43.55063" lon="3.34868">
        <ele>252</ele>
        <time>2016-11-08T23:10:59Z</time>
      </trkpt>
      <trkpt lat="43.55056" lon="3.34865">
        <ele>252</ele>
        <time>2016-11-08T23:12:59Z</time>
      </trkpt>
      <trkpt lat="43.55052" lon="3.3486">
        <ele>251</ele>
        <time>2016-11-08T23:14:59Z</time>
      </trkpt>
      <trkpt lat="43.55039" lon="3.34844">
        <ele>250</ele>
        <time>2016-11-08T23:16:59Z</time>
      </trkpt>
      <trkpt lat="43.55024" lon="3.34835">
        <ele>248</ele>
        <time>2016-11-08T23:18:59Z</time>
      </trkpt>
      <trkpt lat="43.55021" lon="3.34839">
        <ele>247</ele>
        <time>2016-11-08T23:20:59Z</time>
      </trkpt>
      <trkpt lat="43.55031" lon="3.34836">
        <ele>249</ele>
        <time>2016-11-08T23:32:59Z</time>
      </trkpt>
      <trkpt lat="43.55037" lon="3.34836">
        <ele>250</ele>
        <time>2016-11-08T23:34:59Z</time>
      </trkpt>
      <trkpt lat="43.55041" lon="3.34832">
        <ele>251</ele>
        <time>2016-11-08T23:36:59Z</time>
      </trkpt>
      <trkpt lat="43.5504" lon="3.34827">
        <ele>251</ele>
        <time>2016-11-08T23:38:59Z</time>
      </trkpt>
      <trkpt lat="43.55036" lon="3.34798">
        <ele>251</ele>
        <time>2016-11-08T23:40:59Z</time>
      </trkpt>
      <trkpt lat="43.55029" lon="3.34804">
        <ele>249</ele>
        <time>2016-11-08T23:42:59Z</time>
      </trkpt>
      <trkpt lat="43.55022" lon="3.34809">
        <ele>248</ele>
        <time>2016-11-08T23:44:59Z</time>
      </trkpt>
      <trkpt lat="43.55001" lon="3.34832">
        <ele>244</ele>
        <time>2016-11-08T23:46:59Z</time>
      </trkpt>
      <trkpt lat="43.54836" lon="3.34981">
        <ele>223</ele>
        <time>2016-11-09T00:02:59Z</time>
      </trkpt>
      <trkpt lat="43.54827" lon="3.35001">
        <ele>222</ele>
        <time>2016-11-09T00:04:59Z</time>
      </trkpt>
      <trkpt lat="43.54832" lon="3.35025">
        <ele>223</ele>
        <time>2016-11-09T00:06:59Z</time>
      </trkpt>
      <trkpt lat="43.54834" lon="3.35053">
        <ele>224</ele>
        <time>2016-11-09T00:08:59Z</time>
      </trkpt>
      <trkpt lat="43.54832" lon="3.35068">
        <ele>224</ele>
        <time>2016-11-09T00:10:59Z</time>
      </trkpt>
      <trkpt lat="43.54832" lon="3.35072">
        <ele>224</ele>
        <time>2016-11-09T00:12:59Z</time>
      </trkpt>
      <trkpt lat="43.54823" lon="3.35089">
        <ele>223</ele>
        <time>2016-11-09T00:14:59Z</time>
      </trkpt>
      <trkpt lat="43.54815" lon="3.35094">
        <ele>223</ele>
        <time>2016-11-09T00:16:59Z</time>
      </trkpt>
      <trkpt lat="43.54805" lon="3.35091">
        <ele>222</ele>
        <time>2016-11-09T00:18:59Z</time>
      </trkpt>
      <trkpt lat="43.54802" lon="3.35088">
        <ele>221</ele>
        <time>2016-11-09T00:20:59Z</time>
      </trkpt>
      <trkpt lat="43.54787" lon="3.35087">
        <ele>220</ele>
        <time>2016-11-09T00:22:59Z</time>
      </trkpt>
      <trkpt lat="43.54771" lon="3.3509">
        <ele>219</ele>
        <time>2016-11-09T00:24:59Z</time>
      </trkpt>
      <trkpt lat="43.54764" lon="3.35085">
        <ele>218</ele>
        <time>2016-11-09T00:26:59Z</time>
      </trkpt>
      <trkpt lat="43.54763" lon="3.35083">
        <ele>217</ele>
        <time>2016-11-09T00:28:59Z</time>
      </trkpt>
      <trkpt lat="43.54749" lon="3.35064">
        <ele>214</ele>
        <time>2016-11-09T00:30:59Z</time>
      </trkpt>
      <trkpt lat="43.54706" lon="3.35021">
        <ele>204</ele>
        <time>2016-11-09T00:36:59Z</time>
      </trkpt>
      <trkpt lat="43.54704" lon="3.35021">
        <ele>204</ele>
        <time>2016-11-09T00:38:59Z</time>
      </trkpt>
      <trkpt lat="43.54698" lon="3.35016">
        <ele>203</ele>
        <time>2016-11-09T00:42:59Z</time>
      </trkpt>
      <trkpt lat="43.54678" lon="3.35012">
        <ele>199</ele>
        <time>2016-11-09T00:44:59Z</time>
      </trkpt>
      <trkpt lat="43.54668" lon="3.3502">
        <ele>198</ele>
        <time>2016-11-09T00:46:59Z</time>
      </trkpt>
      <trkpt lat="43.5466" lon="3.35034">
        <ele>197</ele>
        <time>2016-11-09T00:48:59Z</time>
      </trkpt>
      <trkpt lat="43.54662" lon="3.35051">
        <ele>199</ele>
        <time>2016-11-09T00:50:59Z</time>
      </trkpt>
      <trkpt lat="43.54667" lon="3.35114">
        <ele>204</ele>
        <time>2016-11-09T00:56:59Z</time>
      </trkpt>
      <trkpt lat="43.54667" lon="3.35115">
        <ele>204</ele>
        <time>2016-11-09T00:58:59Z</time>
      </trkpt>
      <trkpt lat="43.54668" lon="3.35122">
        <ele>205</ele>
        <time>2016-11-09T01:02:59Z</time>
      </trkpt>
      <trkpt lat="43.54667" lon="3.35127">
        <ele>205</ele>
        <time>2016-11-09T01:04:59Z</time>
      </trkpt>
      <trkpt lat="43.54658" lon="3.35161">
        <ele>206</ele>
        <time>2016-11-09T01:06:59Z</time>
      </trkpt>
      <trkpt lat="43.5459" lon="3.35223">
        <ele>202</ele>
        <time>2016-11-09T01:12:59Z</time>
      </trkpt>
      <trkpt lat="43.54586" lon="3.35225">
        <ele>202</ele>
        <time>2016-11-09T01:14:59Z</time>
      </trkpt>
      <trkpt lat="43.54573" lon="3.35204">
        <ele>200</ele>
        <time>2016-11-09T01:16:59Z</time>
      </trkpt>
      <trkpt lat="43.54558" lon="3.35184">
        <ele>199</ele>
        <time>2016-11-09T01:18:59Z</time>
      </trkpt>
      <trkpt lat="43.54539" lon="3.3517">
        <ele>198</ele>
        <time>2016-11-09T01:20:59Z</time>
      </trkpt>
      <trkpt lat="43.54472" lon="3.35161">
        <ele>197</ele>
        <time>2016-11-09T01:26:59Z</time>
      </trkpt>
      <trkpt lat="43.54416" lon="3.35122">
        <ele>189</ele>
        <time>2016-11-09T01:32:59Z</time>
      </trkpt>
      <trkpt lat="43.54403" lon="3.35125">
        <ele>187</ele>
        <time>2016-11-09T01:34:59Z</time>
      </trkpt>
      <trkpt lat="43.54389" lon="3.35138">
        <ele>187</ele>
        <time>2016-11-09T01:36:59Z</time>
      </trkpt>
      <trkpt lat="43.54387" lon="3.3514">
        <ele>187</ele>
        <time>2016-11-09T01:38:59Z</time>
      </trkpt>
      <trkpt lat="43.54371" lon="3.35162">
        <ele>188</ele>
        <time>2016-11-09T01:40:59Z</time>
      </trkpt>
      <trkpt lat="43.54365" lon="3.3517">
        <ele>189</ele>
        <time>2016-11-09T01:42:59Z</time>
      </trkpt>
      <trkpt lat="43.54345" lon="3.3517">
        <ele>185</ele>
        <time>2016-11-09T01:44:59Z</time>
      </trkpt>
      <trkpt lat="43.54342" lon="3.35162">
        <ele>184</ele>
        <time>2016-11-09T01:46:59Z</time>
      </trkpt>
      <trkpt lat="43.54356" lon="3.35154">
        <ele>185</ele>
        <time>2016-11-09T01:48:59Z</time>
      </trkpt>
      <trkpt lat="43.54366" lon="3.35147">
        <ele>185</ele>
        <time>2016-11-09T01:50:59Z</time>
      </trkpt>
      <trkpt lat="43.5437" lon="3.35138">
        <ele>184</ele>
        <time>2016-11-09T01:52:59Z</time>
      </trkpt>
      <trkpt lat="43.5437" lon="3.35131">
        <ele>183</ele>
        <time>2016-11-09T01:54:59Z</time>
      </trkpt>
      <trkpt lat="43.54372" lon="3.35111">
        <ele>181</ele>
        <time>2016-11-09T01:56:59Z</time>
      </trkpt>
      <trkpt lat="43.54376" lon="3.35086">
        <ele>178</ele>
        <time>2016-11-09T01:58:59Z</time>
      </trkpt>
      <trkpt lat="43.54372" lon="3.3505">
        <ele>171</ele>
        <time>2016-11-09T02:00:59Z</time>
      </trkpt>
      <trkpt lat="43.5437" lon="3.35029">
        <ele>168</ele>
        <time>2016-11-09T02:02:59Z</time>
      </trkpt>
      <trkpt lat="43.54369" lon="3.35023">
        <ele>167</ele>
        <time>2016-11-09T02:04:59Z</time>
      </trkpt>
      <trkpt lat="43.54365" lon="3.35026">
        <ele>167</ele>
        <time>2016-11-09T02:06:59Z</time>
      </trkpt>
      <trkpt lat="43.54357" lon="3.35044">
        <ele>169</ele>
        <time>2016-11-09T02:08:59Z</time>
      </trkpt>
      <trkpt lat="43.54349" lon="3.3506">
        <ele>170</ele>
        <time>2016-11-09T02:10:59Z</time>
      </trkpt>
      <trkpt lat="43.54344" lon="3.35067">
        <ele>171</ele>
        <time>2016-11-09T02:12:59Z</time>
      </trkpt>
      <trkpt lat="43.54334" lon="3.35073">
        <ele>170</ele>
        <time>2016-11-09T02:14:59Z</time>
      </trkpt>
      <trkpt lat="43.54291" lon="3.35075">
        <ele>172</ele>
        <time>2016-11-09T02:18:59Z</time>
      </trkpt>
      <trkpt lat="43.5428" lon="3.35066">
        <ele>172</ele>
        <time>2016-11-09T02:20:59Z</time>
      </trkpt>
      <trkpt lat="43.5427" lon="3.35056">
        <ele>172</ele>
        <time>2016-11-09T02:22:59Z</time>
      </trkpt>
      <trkpt lat="43.54271" lon="3.35055">
        <ele>171</ele>
        <time>2016-11-09T02:24:59Z</time>
      </trkpt>
      <trkpt lat="43.54278" lon="3.35032">
        <ele>169</ele>
        <time>2016-11-09T02:26:59Z</time>
      </trkpt>
      <trkpt lat="43.5428" lon="3.35017">
        <ele>167</ele>
        <time>2016-11-09T02:28:59Z</time>
      </trkpt>
      <trkpt lat="43.54281" lon="3.35001">
        <ele>166</ele>
        <time>2016-11-09T02:32:59Z</time>
      </trkpt>
      <trkpt lat="43.54284" lon="3.34975">
        <ele>163</ele>
        <time>2016-11-09T02:36:59Z</time>
      </trkpt>
      <trkpt lat="43.5429" lon="3.34962">
        <ele>161</ele>
        <time>2016-11-09T02:38:59Z</time>
      </trkpt>
      <trkpt lat="43.54292" lon="3.34952">
        <ele>160</ele>
        <time>2016-11-09T02:40:59Z</time>
      </trkpt>
      <trkpt lat="43.54272" lon="3.34864">
        <ele>152</ele>
        <time>2016-11-09T02:50:59Z</time>
      </trkpt>
      <trkpt lat="43.5427" lon="3.34858">
        <ele>152</ele>
        <time>2016-11-09T02:54:59Z</time>
      </trkpt>
      <trkpt lat="43.54253" lon="3.34828">
        <ele>149</ele>
        <time>2016-11-09T02:56:59Z</time>
      </trkpt>
      <trkpt lat="43.54252" lon="3.34817">
        <ele>148</ele>
        <time>2016-11-09T02:58:59Z</time>
      </trkpt>
      <trkpt lat="43.54237" lon="3.3479">
        <ele>151</ele>
        <time>2016-11-09T03:00:59Z</time>
      </trkpt>
      <trkpt lat="43.54226" lon="3.34773">
        <ele>153</ele>
        <time>2016-11-09T03:02:59Z</time>
      </trkpt>
      <trkpt lat="43.54226" lon="3.34761">
        <ele>152</ele>
        <time>2016-11-09T03:04:59Z</time>
      </trkpt>
      <trkpt lat="43.54219" lon="3.34702">
        <ele>150</ele>
        <time>2016-11-09T03:10:59Z</time>
      </trkpt>
      <trkpt lat="43.54219" lon="3.34677">
        <ele>148</ele>
        <time>2016-11-09T03:12:59Z</time>
      </trkpt>
      <trkpt lat="43.54222" lon="3.34653">
        <ele>146</ele>
        <time>2016-11-09T03:14:59Z</time>
      </trkpt>
      <trkpt lat="43.5423" lon="3.34626">
        <ele>144</ele>
        <time>2016-11-09T03:18:59Z</time>
      </trkpt>
      <trkpt lat="43.54229" lon="3.34625">
        <ele>145</ele>
        <time>2016-11-09T03:20:59Z</time>
      </trkpt>
      <trkpt lat="43.54228" lon="3.3462">
        <ele>144</ele>
        <time>2016-11-09T03:22:59Z</time>
      </trkpt>
      <trkpt lat="43.54228" lon="3.34617">
        <ele>144</ele>
        <time>2016-11-09T03:24:59Z</time>
      </trkpt>
      <trkpt lat="43.54228" lon="3.34609">
        <ele>144</ele>
        <time>2016-11-09T03:26:59Z</time>
      </trkpt>
      <trkpt lat="43.54232" lon="3.34593">
        <ele>144</ele>
        <time>2016-11-09T03:28:59Z</time>
      </trkpt>
      <trkpt lat="43.54237" lon="3.34594">
        <ele>143</ele>
        <time>2016-11-09T03:30:59Z</time>
      </trkpt>
      <trkpt lat="43.54238" lon="3.34595">
        <ele>143</ele>
        <time>2016-11-09T03:32:59Z</time>
      </trkpt>
      <trkpt lat="43.54235" lon="3.34592">
        <ele>143</ele>
        <time>2016-11-09T03:34:59Z</time>
      </trkpt>
      <trkpt lat="43.54231" lon="3.34583">
        <ele>143</ele>
        <time>2016-11-09T03:36:59Z</time>
      </trkpt>
      <trkpt lat="43.54226" lon="3.34571">
        <ele>143</ele>
        <time>2016-11-09T03:38:59Z</time>
      </trkpt>
      <trkpt lat="43.54213" lon="3.34552">
        <ele>143</ele>
        <time>2016-11-09T03:40:59Z</time>
      </trkpt>
      <trkpt lat="43.54202" lon="3.34529">
        <ele>141</ele>
        <time>2016-11-09T03:44:59Z</time>
      </trkpt>
      <trkpt lat="43.54195" lon="3.34518">
        <ele>136.78125</ele>
      </trkpt>
      <trkpt lat="43.54184" lon="3.34513">
        <ele>139</ele>
        <time>2016-11-09T03:46:59Z</time>
      </trkpt>
      <trkpt lat="43.54165" lon="3.345">
        <ele>137.703125</ele>
      </trkpt>
      <trkpt lat="43.5414" lon="3.34468">
        <ele>140</ele>
        <time>2016-11-09T03:58:59Z</time>
      </trkpt>
      <trkpt lat="43.5413" lon="3.3445">
        <ele>140</ele>
        <time>2016-11-09T04:00:59Z</time>
      </trkpt>
      <trkpt lat="43.54125" lon="3.34443">
        <ele>140</ele>
        <time>2016-11-09T04:02:59Z</time>
      </trkpt>
      <trkpt lat="43.54121" lon="3.34427">
        <ele>138</ele>
        <time>2016-11-09T04:04:59Z</time>
      </trkpt>
      <trkpt lat="43.54115" lon="3.34435">
        <ele>139</ele>
        <time>2016-11-09T04:06:59Z</time>
      </trkpt>
      <trkpt lat="43.54117" lon="3.34426">
        <ele>138</ele>
        <time>2016-11-09T04:08:59Z</time>
      </trkpt>
      <trkpt lat="43.54115" lon="3.34422">
        <ele>138</ele>
        <time>2016-11-09T04:10:59Z</time>
      </trkpt>
      <trkpt lat="43.54116" lon="3.34422">
        <ele>138</ele>
        <time>2016-11-09T04:12:59Z</time>
      </trkpt>
      <trkpt lat="43.54116" lon="3.3443">
        <ele>139</ele>
        <time>2016-11-09T04:14:59Z</time>
      </trkpt>
      <trkpt lat="43.54117" lon="3.34429">
        <ele>139</ele>
        <time>2016-11-09T04:16:59Z</time>
      </trkpt>
      <trkpt lat="43.54117" lon="3.3443">
        <ele>139</ele>
        <time>2016-11-09T04:18:59Z</time>
      </trkpt>
      <trkpt lat="43.54118" lon="3.34432">
        <ele>139</ele>
        <time>2016-11-09T04:20:59Z</time>
      </trkpt>
      <trkpt lat="43.54119" lon="3.34429">
        <ele>139</ele>
        <time>2016-11-09T04:22:59Z</time>
      </trkpt>
      <trkpt lat="43.54115" lon="3.34418">
        <ele>137</ele>
        <time>2016-11-09T04:24:59Z</time>
      </trkpt>
      <trkpt lat="43.54114" lon="3.34413">
        <ele>137</ele>
        <time>2016-11-09T04:26:59Z</time>
      </trkpt>
      <trkpt lat="43.54111" lon="3.34401">
        <ele>137</ele>
        <time>2016-11-09T04:28:59Z</time>
      </trkpt>
      <trkpt lat="43.54104" lon="3.34373">
        <ele>136</ele>
        <time>2016-11-09T04:30:59Z</time>
      </trkpt>
      <trkpt lat="43.54105" lon="3.34364">
        <ele>136</ele>
        <time>2016-11-09T04:32:59Z</time>
      </trkpt>
      <trkpt lat="43.54102" lon="3.34272">
        <ele>137</ele>
        <time>2016-11-09T04:38:59Z</time>
      </trkpt>
      <trkpt lat="43.54101" lon="3.34248">
        <ele>137</ele>
        <time>2016-11-09T04:40:59Z</time>
      </trkpt>
      <trkpt lat="43.541" lon="3.34242">
        <ele>137</ele>
        <time>2016-11-09T04:42:59Z</time>
      </trkpt>
      <trkpt lat="43.541" lon="3.34239">
        <ele>137</ele>
        <time>2016-11-09T04:44:59Z</time>
      </trkpt>
      <trkpt lat="43.54099" lon="3.34205">
        <ele>137</ele>
        <time>2016-11-09T04:46:59Z</time>
      </trkpt>
      <trkpt lat="43.541" lon="3.34202">
        <ele>137</ele>
        <time>2016-11-09T04:48:59Z</time>
      </trkpt>
      <trkpt lat="43.54102" lon="3.342">
        <ele>138</ele>
        <time>2016-11-09T04:50:59Z</time>
      </trkpt>
      <trkpt lat="43.54118" lon="3.34179">
        <ele>141</ele>
        <time>2016-11-09T04:52:59Z</time>
      </trkpt>
      <trkpt lat="43.54122" lon="3.34172">
        <ele>142</ele>
        <time>2016-11-09T04:54:59Z</time>
      </trkpt>
      <trkpt lat="43.54118" lon="3.34148">
        <ele>141</ele>
        <time>2016-11-09T04:56:59Z</time>
      </trkpt>
      <trkpt lat="43.54116" lon="3.34144">
        <ele>141</ele>
        <time>2016-11-09T04:58:59Z</time>
      </trkpt>
      <trkpt lat="43.54099" lon="3.34114">
        <ele>139</ele>
        <time>2016-11-09T05:00:59Z</time>
      </trkpt>
      <trkpt lat="43.54086" lon="3.34048">
        <ele>139</ele>
        <time>2016-11-09T05:02:59Z</time>
      </trkpt>
      <trkpt lat="43.54081" lon="3.33974">
        <ele>140</ele>
        <time>2016-11-09T05:08:59Z</time>
      </trkpt>
      <trkpt lat="43.54081" lon="3.3394">
        <ele>140</ele>
        <time>2016-11-09T05:10:59Z</time>
      </trkpt>
      <trkpt lat="43.54074" lon="3.33911">
        <ele>140</ele>
        <time>2016-11-09T05:12:59Z</time>
      </trkpt>
      <trkpt lat="43.54042" lon="3.33803">
        <ele>140</ele>
        <time>2016-11-09T05:22:59Z</time>
      </trkpt>
      <trkpt lat="43.54026" lon="3.33744">
        <ele>139</ele>
        <time>2016-11-09T05:26:59Z</time>
      </trkpt>
      <trkpt lat="43.54" lon="3.33735">
        <ele>137</ele>
        <time>2016-11-09T05:28:59Z</time>
      </trkpt>
      <trkpt lat="43.53979" lon="3.33722">
        <ele>137</ele>
        <time>2016-11-09T05:30:59Z</time>
      </trkpt>
      <trkpt lat="43.53976" lon="3.33721">
        <ele>137</ele>
        <time>2016-11-09T05:32:59Z</time>
      </trkpt>
      <trkpt lat="43.53956" lon="3.3372">
        <ele>136</ele>
        <time>2016-11-09T05:34:59Z</time>
      </trkpt>
      <trkpt lat="43.53945" lon="3.33715">
        <ele>136</ele>
        <time>2016-11-09T05:36:59Z</time>
      </trkpt>
      <trkpt lat="43.53905" lon="3.33715">
        <ele>135</ele>
        <time>2016-11-09T05:40:59Z</time>
      </trkpt>
      <trkpt lat="43.53899" lon="3.33713">
        <ele>135</ele>
        <time>2016-11-09T05:42:59Z</time>
      </trkpt>
      <trkpt lat="43.53891" lon="3.33703">
        <ele>135</ele>
        <time>2016-11-09T05:44:59Z</time>
      </trkpt>
      <trkpt lat="43.53885" lon="3.33691">
        <ele>135</ele>
        <time>2016-11-09T05:46:59Z</time>
      </trkpt>
      <trkpt lat="43.53886" lon="3.33692">
        <ele>135</ele>
        <time>2016-11-09T05:48:59Z</time>
      </trkpt>
      <trkpt lat="43.53887" lon="3.3369">
        <ele>135</ele>
        <time>2016-11-09T05:50:59Z</time>
      </trkpt>
      <trkpt lat="43.53885" lon="3.33686">
        <ele>135</ele>
        <time>2016-11-09T05:52:59Z</time>
      </trkpt>
      <trkpt lat="43.53845" lon="3.33634">
        <ele>136</ele>
        <time>2016-11-09T05:54:59Z</time>
      </trkpt>
      <trkpt lat="43.53808" lon="3.33551">
        <ele>135</ele>
        <time>2016-11-09T05:56:59Z</time>
      </trkpt>
      <trkpt lat="43.53794" lon="3.33527">
        <ele>135</ele>
        <time>2016-11-09T05:58:59Z</time>
      </trkpt>
      <trkpt lat="43.53785" lon="3.33516">
        <ele>134</ele>
        <time>2016-11-09T06:00:59Z</time>
      </trkpt>
      <trkpt lat="43.53771" lon="3.33501">
        <ele>133</ele>
        <time>2016-11-09T06:02:59Z</time>
      </trkpt>
      <trkpt lat="43.53737" lon="3.33471">
        <ele>134</ele>
        <time>2016-11-09T06:04:59Z</time>
      </trkpt>
      <trkpt lat="43.53721" lon="3.33462">
        <ele>134</ele>
        <time>2016-11-09T06:06:59Z</time>
      </trkpt>
      <trkpt lat="43.53715" lon="3.3346">
        <ele>135</ele>
        <time>2016-11-09T06:08:59Z</time>
      </trkpt>
      <trkpt lat="43.53666" lon="3.33436">
        <ele>135</ele>
        <time>2016-11-09T06:18:59Z</time>
      </trkpt>
      <trkpt lat="43.53641" lon="3.33423">
        <ele>136</ele>
        <time>2016-11-09T06:20:59Z</time>
      </trkpt>
      <trkpt lat="43.53628" lon="3.334">
        <ele>136</ele>
        <time>2016-11-09T06:22:59Z</time>
      </trkpt>
      <trkpt lat="43.53625" lon="3.33393">
        <ele>136</ele>
        <time>2016-11-09T06:24:59Z</time>
      </trkpt>
      <trkpt lat="43.53614" lon="3.33356">
        <ele>135</ele>
        <time>2016-11-09T06:26:59Z</time>
      </trkpt>
      <trkpt lat="43.53598" lon="3.33313">
        <ele>135</ele>
        <time>2016-11-09T06:28:59Z</time>
      </trkpt>
      <trkpt lat="43.53576" lon="3.33276">
        <ele>135</ele>
        <time>2016-11-09T06:30:59Z</time>
      </trkpt>
      <trkpt lat="43.53568" lon="3.33266">
        <ele>135</ele>
        <time>2016-11-09T06:32:59Z</time>
      </trkpt>
      <trkpt lat="43.53562" lon="3.33257">
        <ele>135</ele>
        <time>2016-11-09T06:34:59Z</time>
      </trkpt>
      <trkpt lat="43.53554" lon="3.33243">
        <ele>135</ele>
        <time>2016-11-09T06:36:59Z</time>
      </trkpt>
      <trkpt lat="43.53547" lon="3.33226">
        <ele>135</ele>
        <time>2016-11-09T06:38:59Z</time>
      </trkpt>
      <trkpt lat="43.53542" lon="3.332">
        <ele>134</ele>
        <time>2016-11-09T06:40:59Z</time>
      </trkpt>
      <trkpt lat="43.53536" lon="3.33184">
        <ele>134</ele>
        <time>2016-11-09T06:42:59Z</time>
      </trkpt>
      <trkpt lat="43.5353" lon="3.33173">
        <ele>135</ele>
        <time>2016-11-09T06:44:59Z</time>
      </trkpt>
      <trkpt lat="43.53519" lon="3.33152">
        <ele>134</ele>
        <time>2016-11-09T06:46:59Z</time>
      </trkpt>
      <trkpt lat="43.53516" lon="3.33131">
        <ele>133</ele>
        <time>2016-11-09T06:48:59Z</time>
      </trkpt>
      <trkpt lat="43.53512" lon="3.33105">
        <ele>130</ele>
        <time>2016-11-09T06:50:59Z</time>
      </trkpt>
      <trkpt lat="43.53501" lon="3.33091">
        <ele>130</ele>
        <time>2016-11-09T06:52:59Z</time>
      </trkpt>
      <trkpt lat="43.53485" lon="3.33073">
        <ele>129</ele>
        <time>2016-11-09T06:54:59Z</time>
      </trkpt>
      <trkpt lat="43.53467" lon="3.33059">
        <ele>128</ele>
        <time>2016-11-09T06:56:59Z</time>
      </trkpt>
      <trkpt lat="43.53448" lon="3.33042">
        <ele>127</ele>
        <time>2016-11-09T06:58:59Z</time>
      </trkpt>
      <trkpt lat="43.53448" lon="3.33041">
        <ele>127</ele>
        <time>2016-11-09T07:00:59Z</time>
      </trkpt>
      <trkpt lat="43.53444" lon="3.33036">
        <ele>126</ele>
        <time>2016-11-09T07:02:59Z</time>
      </trkpt>
      <trkpt lat="43.53444" lon="3.33033">
        <ele>126</ele>
        <time>2016-11-09T07:04:59Z</time>
      </trkpt>
      <trkpt lat="43.53424" lon="3.33021">
        <ele>126</ele>
        <time>2016-11-09T07:06:59Z</time>
      </trkpt>
      <trkpt lat="43.53415" lon="3.33008">
        <ele>125</ele>
        <time>2016-11-09T07:08:59Z</time>
      </trkpt>
      <trkpt lat="43.53415" lon="3.33006">
        <ele>125</ele>
        <time>2016-11-09T07:10:59Z</time>
      </trkpt>
      <trkpt lat="43.53408" lon="3.32996">
        <ele>123</ele>
        <time>2016-11-09T07:12:59Z</time>
      </trkpt>
      <trkpt lat="43.53397" lon="3.32983">
        <ele>121</ele>
        <time>2016-11-09T07:14:59Z</time>
      </trkpt>
      <trkpt lat="43.53398" lon="3.32968">
        <ele>119</ele>
        <time>2016-11-09T07:16:59Z</time>
      </trkpt>
      <trkpt lat="43.53398" lon="3.32962">
        <ele>119</ele>
        <time>2016-11-09T07:18:59Z</time>
      </trkpt>
      <trkpt lat="43.53397" lon="3.32958">
        <ele>118</ele>
        <time>2016-11-09T07:20:59Z</time>
      </trkpt>
      <trkpt lat="43.53384" lon="3.32952">
        <ele>117</ele>
        <time>2016-11-09T07:22:59Z</time>
      </trkpt>
      <trkpt lat="43.53382" lon="3.32948">
        <ele>117</ele>
        <time>2016-11-09T07:24:59Z</time>
      </trkpt>
      <trkpt lat="43.53364" lon="3.32946">
        <ele>117</ele>
        <time>2016-11-09T07:26:59Z</time>
      </trkpt>
      <trkpt lat="43.53316" lon="3.32975">
        <ele>117</ele>
        <time>2016-11-09T07:28:59Z</time>
      </trkpt>
      <trkpt lat="43.53287" lon="3.3293">
        <ele>112</ele>
        <time>2016-11-09T07:36:59Z</time>
      </trkpt>
      <trkpt lat="43.53272" lon="3.32904">
        <ele>111</ele>
        <time>2016-11-09T07:38:59Z</time>
      </trkpt>
      <trkpt lat="43.53268" lon="3.32894">
        <ele>112</ele>
        <time>2016-11-09T07:40:59Z</time>
      </trkpt>
      <trkpt lat="43.53251" lon="3.32878">
        <ele>112</ele>
        <time>2016-11-09T07:44:59Z</time>
      </trkpt>
      <trkpt lat="43.53242" lon="3.3288">
        <ele>112</ele>
        <time>2016-11-09T07:46:59Z</time>
      </trkpt>
      <trkpt lat="43.53229" lon="3.3288">
        <ele>111</ele>
        <time>2016-11-09T07:48:59Z</time>
      </trkpt>
      <trkpt lat="43.53226" lon="3.32881">
        <ele>111</ele>
        <time>2016-11-09T07:50:59Z</time>
      </trkpt>
      <trkpt lat="43.53213" lon="3.3288">
        <ele>111</ele>
        <time>2016-11-09T07:52:59Z</time>
      </trkpt>
      <trkpt lat="43.53183" lon="3.3288">
        <ele>110</ele>
        <time>2016-11-09T07:54:59Z</time>
      </trkpt>
      <trkpt lat="43.53147" lon="3.32887">
        <ele>110</ele>
        <time>2016-11-09T07:56:59Z</time>
      </trkpt>
      <trkpt lat="43.53123" lon="3.32897">
        <ele>110</ele>
        <time>2016-11-09T07:58:59Z</time>
      </trkpt>
    </trkseg>
  </trk>
</gpx>